<?xml version="1.0" encoding="UTF-8" standalone="no" ?><gpx xmlns="http://www.topografix.com/GPX/1/1" xmlns:gpxx="http://www.garmin.com/xmlschemas/GpxExtensions/v3" xmlns:wptx1="http://www.garmin.com/xmlschemas/WaypointExtension/v1" xmlns:gpxtpx="http://www.garmin.com/xmlschemas/TrackPointExtension/v1" creator="GuideVTT.com" version="1.1" xmlns:xsi="http://www.w3.org/2001/XMLSchema-instance" xsi:schemaLocation="http://www.topografix.com/GPX/1/1 http://www.topografix.com/GPX/1/1/gpx.xsd http://www.garmin.com/xmlschemas/GpxExtensions/v3 http://www8.garmin.com/xmlschemas/GpxExtensionsv3.xsd http://www.garmin.com/xmlschemas/WaypointExtension/v1 http://www8.garmin.com/xmlschemas/WaypointExtensionv1.xsd http://www.garmin.com/xmlschemas/TrackPointExtension/v1 http://www.garmin.com/xmlschemas/TrackPointExtensionv1.xsd">
<metadata><link href="http://www.garmin.com"><text>Garmin International</text></link><time>2013-06-22T15:13:50Z</time></metadata>
<trk><name>2012-06-29b.gpx</name><extensions><gpxx:TrackExtension><gpxx:DisplayColor>Cyan</gpxx:DisplayColor></gpxx:TrackExtension></extensions><trkseg>
<trkpt lat="48.18846809" lon="11.61391240"><ele>511.078003</ele><time>2012-06-29T16:07:28Z</time></trkpt>
<trkpt lat="48.18840271" lon="11.61420048"><ele>508.194092</ele><time>2012-06-29T16:07:40Z</time></trkpt>
<trkpt lat="48.18840514" lon="11.61367125"><ele>505.790894</ele><time>2012-06-29T16:07:54Z</time></trkpt>
<trkpt lat="48.18853288" lon="11.61360864"><ele>504.348877</ele><time>2012-06-29T16:07:59Z</time></trkpt>
<trkpt lat="48.18871510" lon="11.61379505"><ele>503.868164</ele><time>2012-06-29T16:08:04Z</time></trkpt>
<trkpt lat="48.18819727" lon="11.61628355"><ele>503.868164</ele><time>2012-06-29T16:08:34Z</time></trkpt>
<trkpt lat="48.18627915" lon="11.62270954"><ele>506.752075</ele><time>2012-06-29T16:09:52Z</time></trkpt>
<trkpt lat="48.18532462" lon="11.62537490"><ele>506.271484</ele><time>2012-06-29T16:10:25Z</time></trkpt>
<trkpt lat="48.18514969" lon="11.62579651"><ele>506.271484</ele><time>2012-06-29T16:10:29Z</time></trkpt>
<trkpt lat="48.18478416" lon="11.62685322"><ele>506.271484</ele><time>2012-06-29T16:10:41Z</time></trkpt>
<trkpt lat="48.18397732" lon="11.62933091"><ele>506.271484</ele><time>2012-06-29T16:11:05Z</time></trkpt>
<trkpt lat="48.18373214" lon="11.63006709"><ele>507.232788</ele><time>2012-06-29T16:11:14Z</time></trkpt>
<trkpt lat="48.18333744" lon="11.63111642"><ele>506.752075</ele><time>2012-06-29T16:11:27Z</time></trkpt>
<trkpt lat="48.18312831" lon="11.63162570"><ele>506.271484</ele><time>2012-06-29T16:11:37Z</time></trkpt>
<trkpt lat="48.18301499" lon="11.63240581"><ele>510.116699</ele><time>2012-06-29T16:11:51Z</time></trkpt>
<trkpt lat="48.18294911" lon="11.63267034"><ele>510.59729</ele><time>2012-06-29T16:11:58Z</time></trkpt>
<trkpt lat="48.18292790" lon="11.63270823"><ele>513.000732</ele><time>2012-06-29T16:12:09Z</time></trkpt>
<trkpt lat="48.18379761" lon="11.63359964"><ele>510.116699</ele><time>2012-06-29T16:13:29Z</time></trkpt>
<trkpt lat="48.18402375" lon="11.63378748"><ele>511.078003</ele><time>2012-06-29T16:13:33Z</time></trkpt>
<trkpt lat="48.18432039" lon="11.63402469"><ele>511.558716</ele><time>2012-06-29T16:13:47Z</time></trkpt>
<trkpt lat="48.18430781" lon="11.63496254"><ele>510.59729</ele><time>2012-06-29T16:14:01Z</time></trkpt>
<trkpt lat="48.18470503" lon="11.63508366"><ele>509.636108</ele><time>2012-06-29T16:14:09Z</time></trkpt>
<trkpt lat="48.18489580" lon="11.63524467"><ele>510.116699</ele><time>2012-06-29T16:14:13Z</time></trkpt>
<trkpt lat="48.18491450" lon="11.63532363"><ele>510.116699</ele><time>2012-06-29T16:14:14Z</time></trkpt>
<trkpt lat="48.18484426" lon="11.63610935"><ele>510.116699</ele><time>2012-06-29T16:14:22Z</time></trkpt>
<trkpt lat="48.18475289" lon="11.63729908"><ele>512.039429</ele><time>2012-06-29T16:14:33Z</time></trkpt>
<trkpt lat="48.18486714" lon="11.63761156"><ele>511.078003</ele><time>2012-06-29T16:14:38Z</time></trkpt>
<trkpt lat="48.18492212" lon="11.63762304"><ele>511.078003</ele><time>2012-06-29T16:14:39Z</time></trkpt>
<trkpt lat="48.18538724" lon="11.63772807"><ele>510.116699</ele><time>2012-06-29T16:14:47Z</time></trkpt>
<trkpt lat="48.18570994" lon="11.63780954"><ele>505.790894</ele><time>2012-06-29T16:15:12Z</time></trkpt>
<trkpt lat="48.18549570" lon="11.64015354"><ele>508.674683</ele><time>2012-06-29T16:15:37Z</time></trkpt>
<trkpt lat="48.18525773" lon="11.64202807"><ele>508.194092</ele><time>2012-06-29T16:15:53Z</time></trkpt>
<trkpt lat="48.18513938" lon="11.64358274"><ele>507.713501</ele><time>2012-06-29T16:16:06Z</time></trkpt>
<trkpt lat="48.18507023" lon="11.64609019"><ele>508.674683</ele><time>2012-06-29T16:16:29Z</time></trkpt>
<trkpt lat="48.18499706" lon="11.64747764"><ele>508.674683</ele><time>2012-06-29T16:16:42Z</time></trkpt>
<trkpt lat="48.18499521" lon="11.64793689"><ele>508.674683</ele><time>2012-06-29T16:16:46Z</time></trkpt>
<trkpt lat="48.18489170" lon="11.64950120"><ele>508.674683</ele><time>2012-06-29T16:17:00Z</time></trkpt>
<trkpt lat="48.18483696" lon="11.65000915"><ele>509.155396</ele><time>2012-06-29T16:17:06Z</time></trkpt>
<trkpt lat="48.18544859" lon="11.65051541"><ele>507.232788</ele><time>2012-06-29T16:17:24Z</time></trkpt>
<trkpt lat="48.18626147" lon="11.65079093"><ele>508.674683</ele><time>2012-06-29T16:17:35Z</time></trkpt>
<trkpt lat="48.18718465" lon="11.65113098"><ele>507.232788</ele><time>2012-06-29T16:17:47Z</time></trkpt>
<trkpt lat="48.18816357" lon="11.65144455"><ele>502.906738</ele><time>2012-06-29T16:18:01Z</time></trkpt>
<trkpt lat="48.18925112" lon="11.65182039"><ele>502.906738</ele><time>2012-06-29T16:18:15Z</time></trkpt>
<trkpt lat="48.19097067" lon="11.65275631"><ele>511.078003</ele><time>2012-06-29T16:18:43Z</time></trkpt>
<trkpt lat="48.19085207" lon="11.65375225"><ele>510.116699</ele><time>2012-06-29T16:18:52Z</time></trkpt>
<trkpt lat="48.19116446" lon="11.65564212"><ele>510.59729</ele><time>2012-06-29T16:19:07Z</time></trkpt>
<trkpt lat="48.19059449" lon="11.65655457"><ele>511.078003</ele><time>2012-06-29T16:19:20Z</time></trkpt>
<trkpt lat="48.19049718" lon="11.65752335"><ele>508.674683</ele><time>2012-06-29T16:19:30Z</time></trkpt>
<trkpt lat="48.19047790" lon="11.65779007"><ele>508.194092</ele><time>2012-06-29T16:19:34Z</time></trkpt>
<trkpt lat="48.19060916" lon="11.65793365"><ele>506.752075</ele><time>2012-06-29T16:19:38Z</time></trkpt>
<trkpt lat="48.19116756" lon="11.65814655"><ele>505.310181</ele><time>2012-06-29T16:19:47Z</time></trkpt>
<trkpt lat="48.19122448" lon="11.65832978"><ele>509.155396</ele><time>2012-06-29T16:19:50Z</time></trkpt>
<trkpt lat="48.19118776" lon="11.65877720"><ele>512.52002</ele><time>2012-06-29T16:19:55Z</time></trkpt>
<trkpt lat="48.19122666" lon="11.65982628"><ele>510.116699</ele><time>2012-06-29T16:20:06Z</time></trkpt>
<trkpt lat="48.19125415" lon="11.66131097"><ele>506.752075</ele><time>2012-06-29T16:20:21Z</time></trkpt>
<trkpt lat="48.19126178" lon="11.66215964"><ele>505.310181</ele><time>2012-06-29T16:20:30Z</time></trkpt>
<trkpt lat="48.19126689" lon="11.66286724"><ele>504.348877</ele><time>2012-06-29T16:20:38Z</time></trkpt>
<trkpt lat="48.19126052" lon="11.66377064"><ele>503.868164</ele><time>2012-06-29T16:20:47Z</time></trkpt>
<trkpt lat="48.19128625" lon="11.66415386"><ele>503.387451</ele><time>2012-06-29T16:20:51Z</time></trkpt>
<trkpt lat="48.19114862" lon="11.66537552"><ele>503.868164</ele><time>2012-06-29T16:21:03Z</time></trkpt>
<trkpt lat="48.19101250" lon="11.66664437"><ele>504.829468</ele><time>2012-06-29T16:21:15Z</time></trkpt>
<trkpt lat="48.19084235" lon="11.66832143"><ele>503.387451</ele><time>2012-06-29T16:21:31Z</time></trkpt>
<trkpt lat="48.19069114" lon="11.66952381"><ele>504.348877</ele><time>2012-06-29T16:21:43Z</time></trkpt>
<trkpt lat="48.19051981" lon="11.67098050"><ele>504.829468</ele><time>2012-06-29T16:21:57Z</time></trkpt>
<trkpt lat="48.19032585" lon="11.67267767"><ele>505.790894</ele><time>2012-06-29T16:22:13Z</time></trkpt>
<trkpt lat="48.19018261" lon="11.67406387"><ele>505.310181</ele><time>2012-06-29T16:22:26Z</time></trkpt>
<trkpt lat="48.19004456" lon="11.67536843"><ele>506.752075</ele><time>2012-06-29T16:22:39Z</time></trkpt>
<trkpt lat="48.18994976" lon="11.67605457"><ele>507.713501</ele><time>2012-06-29T16:22:48Z</time></trkpt>
<trkpt lat="48.18989452" lon="11.67667005"><ele>503.868164</ele><time>2012-06-29T16:22:59Z</time></trkpt>
<trkpt lat="48.18979025" lon="11.67766448"><ele>501.945557</ele><time>2012-06-29T16:23:09Z</time></trkpt>
<trkpt lat="48.18967827" lon="11.67878347"><ele>501.945557</ele><time>2012-06-29T16:23:20Z</time></trkpt>
<trkpt lat="48.18955245" lon="11.68000781"><ele>501.945557</ele><time>2012-06-29T16:23:32Z</time></trkpt>
<trkpt lat="48.18943050" lon="11.68115445"><ele>500.50354</ele><time>2012-06-29T16:23:43Z</time></trkpt>
<trkpt lat="48.18930242" lon="11.68228861"><ele>500.50354</ele><time>2012-06-29T16:23:54Z</time></trkpt>
<trkpt lat="48.18919991" lon="11.68329611"><ele>501.464844</ele><time>2012-06-29T16:24:04Z</time></trkpt>
<trkpt lat="48.18905122" lon="11.68463563"><ele>500.50354</ele><time>2012-06-29T16:24:17Z</time></trkpt>
<trkpt lat="48.18890864" lon="11.68596583"><ele>500.984131</ele><time>2012-06-29T16:24:30Z</time></trkpt>
<trkpt lat="48.18879171" lon="11.68708549"><ele>500.50354</ele><time>2012-06-29T16:24:41Z</time></trkpt>
<trkpt lat="48.18865115" lon="11.68825912"><ele>500.50354</ele><time>2012-06-29T16:24:53Z</time></trkpt>
<trkpt lat="48.18852492" lon="11.68941893"><ele>500.022949</ele><time>2012-06-29T16:25:05Z</time></trkpt>
<trkpt lat="48.18841092" lon="11.69050522"><ele>503.868164</ele><time>2012-06-29T16:25:17Z</time></trkpt>
<trkpt lat="48.18838427" lon="11.69113101"><ele>504.829468</ele><time>2012-06-29T16:25:25Z</time></trkpt>
<trkpt lat="48.18827849" lon="11.69193191"><ele>507.713501</ele><time>2012-06-29T16:25:37Z</time></trkpt>
<trkpt lat="48.18820087" lon="11.69255124"><ele>507.713501</ele><time>2012-06-29T16:25:44Z</time></trkpt>
<trkpt lat="48.18809593" lon="11.69340310"><ele>506.271484</ele><time>2012-06-29T16:25:51Z</time></trkpt>
<trkpt lat="48.18801085" lon="11.69417373"><ele>504.348877</ele><time>2012-06-29T16:25:56Z</time></trkpt>
<trkpt lat="48.18805737" lon="11.69473012"><ele>503.868164</ele><time>2012-06-29T16:26:00Z</time></trkpt>
<trkpt lat="48.18825116" lon="11.69585598"><ele>502.906738</ele><time>2012-06-29T16:26:09Z</time></trkpt>
<trkpt lat="48.18847245" lon="11.69710622"><ele>502.426147</ele><time>2012-06-29T16:26:20Z</time></trkpt>
<trkpt lat="48.18876011" lon="11.69869040"><ele>502.426147</ele><time>2012-06-29T16:26:34Z</time></trkpt>
<trkpt lat="48.18892222" lon="11.69959062"><ele>502.426147</ele><time>2012-06-29T16:26:43Z</time></trkpt>
<trkpt lat="48.18895382" lon="11.69975474"><ele>502.426147</ele><time>2012-06-29T16:26:45Z</time></trkpt>
<trkpt lat="48.18886732" lon="11.69993511"><ele>502.426147</ele><time>2012-06-29T16:26:49Z</time></trkpt>
<trkpt lat="48.18881351" lon="11.69993646"><ele>502.426147</ele><time>2012-06-29T16:26:50Z</time></trkpt>
<trkpt lat="48.18831730" lon="11.70000351"><ele>501.945557</ele><time>2012-06-29T16:26:58Z</time></trkpt>
<trkpt lat="48.18857621" lon="11.70164854"><ele>501.945557</ele><time>2012-06-29T16:27:16Z</time></trkpt>
<trkpt lat="48.18886665" lon="11.70290055"><ele>501.945557</ele><time>2012-06-29T16:27:28Z</time></trkpt>
<trkpt lat="48.18898483" lon="11.70349851"><ele>500.50354</ele><time>2012-06-29T16:27:34Z</time></trkpt>
<trkpt lat="48.18879792" lon="11.70386757"><ele>500.022949</ele><time>2012-06-29T16:27:39Z</time></trkpt>
<trkpt lat="48.18873966" lon="11.70416445"><ele>500.984131</ele><time>2012-06-29T16:27:43Z</time></trkpt>
<trkpt lat="48.18891434" lon="11.70456184"><ele>500.984131</ele><time>2012-06-29T16:27:48Z</time></trkpt>
<trkpt lat="48.18897712" lon="11.70461523"><ele>501.464844</ele><time>2012-06-29T16:27:51Z</time></trkpt>
<trkpt lat="48.18910277" lon="11.70463082"><ele>501.464844</ele><time>2012-06-29T16:27:56Z</time></trkpt>
<trkpt lat="48.18947593" lon="11.70433545"><ele>501.945557</ele><time>2012-06-29T16:28:04Z</time></trkpt>
<trkpt lat="48.19015754" lon="11.70380353"><ele>500.022949</ele><time>2012-06-29T16:28:16Z</time></trkpt>
<trkpt lat="48.19044949" lon="11.70356062"><ele>500.50354</ele><time>2012-06-29T16:28:21Z</time></trkpt>
<trkpt lat="48.19069952" lon="11.70260676"><ele>501.464844</ele><time>2012-06-29T16:28:30Z</time></trkpt>
<trkpt lat="48.19147660" lon="11.69930588"><ele>503.868164</ele><time>2012-06-29T16:29:01Z</time></trkpt>
<trkpt lat="48.19171809" lon="11.69804080"><ele>504.348877</ele><time>2012-06-29T16:29:13Z</time></trkpt>
<trkpt lat="48.19188992" lon="11.69684546"><ele>503.868164</ele><time>2012-06-29T16:29:24Z</time></trkpt>
<trkpt lat="48.19196770" lon="11.69622855"><ele>504.829468</ele><time>2012-06-29T16:29:30Z</time></trkpt>
<trkpt lat="48.19210961" lon="11.69601867"><ele>505.790894</ele><time>2012-06-29T16:29:35Z</time></trkpt>
<trkpt lat="48.19219938" lon="11.69605195"><ele>505.790894</ele><time>2012-06-29T16:29:37Z</time></trkpt>
<trkpt lat="48.19272785" lon="11.69633358"><ele>506.752075</ele><time>2012-06-29T16:29:46Z</time></trkpt>
<trkpt lat="48.19398246" lon="11.69696281"><ele>508.194092</ele><time>2012-06-29T16:30:06Z</time></trkpt>
<trkpt lat="48.19410919" lon="11.69712676"><ele>509.155396</ele><time>2012-06-29T16:30:08Z</time></trkpt>
<trkpt lat="48.19449870" lon="11.69834314"><ele>506.271484</ele><time>2012-06-29T16:30:14Z</time></trkpt>
<trkpt lat="48.19460817" lon="11.69886600"><ele>503.868164</ele><time>2012-06-29T16:30:18Z</time></trkpt>
<trkpt lat="48.19467757" lon="11.69912743"><ele>503.868164</ele><time>2012-06-29T16:30:21Z</time></trkpt>
<trkpt lat="48.19466583" lon="11.69951241"><ele>502.906738</ele><time>2012-06-29T16:30:25Z</time></trkpt>
<trkpt lat="48.19462527" lon="11.70023225"><ele>501.945557</ele><time>2012-06-29T16:30:32Z</time></trkpt>
<trkpt lat="48.19465728" lon="11.70086031"><ele>501.464844</ele><time>2012-06-29T16:30:38Z</time></trkpt>
<trkpt lat="48.19460942" lon="11.70127630"><ele>500.022949</ele><time>2012-06-29T16:30:42Z</time></trkpt>
<trkpt lat="48.19468067" lon="11.70164796"><ele>500.50354</ele><time>2012-06-29T16:30:46Z</time></trkpt>
<trkpt lat="48.19486884" lon="11.70174477"><ele>500.50354</ele><time>2012-06-29T16:30:49Z</time></trkpt>
<trkpt lat="48.19493230" lon="11.70174611"><ele>499.542236</ele><time>2012-06-29T16:30:50Z</time></trkpt>
<trkpt lat="48.19614063" lon="11.70173856"><ele>499.061523</ele><time>2012-06-29T16:31:07Z</time></trkpt>
<trkpt lat="48.19818070" lon="11.70267088"><ele>498.100342</ele><time>2012-06-29T16:32:24Z</time></trkpt>
<trkpt lat="48.19895150" lon="11.70284154"><ele>498.100342</ele><time>2012-06-29T16:32:34Z</time></trkpt>
<trkpt lat="48.19979841" lon="11.70292553"><ele>497.619629</ele><time>2012-06-29T16:32:45Z</time></trkpt>
<trkpt lat="48.20045605" lon="11.70288144"><ele>498.100342</ele><time>2012-06-29T16:32:53Z</time></trkpt>
<trkpt lat="48.20142576" lon="11.70254499"><ele>498.580933</ele><time>2012-06-29T16:33:05Z</time></trkpt>
<trkpt lat="48.20196656" lon="11.70227098"><ele>499.061523</ele><time>2012-06-29T16:33:12Z</time></trkpt>
<trkpt lat="48.20242622" lon="11.70203386"><ele>498.100342</ele><time>2012-06-29T16:33:18Z</time></trkpt>
<trkpt lat="48.20339181" lon="11.70135107"><ele>497.619629</ele><time>2012-06-29T16:33:31Z</time></trkpt>
<trkpt lat="48.20389808" lon="11.70101420"><ele>501.945557</ele><time>2012-06-29T16:33:38Z</time></trkpt>
<trkpt lat="48.20481808" lon="11.70029419"><ele>500.022949</ele><time>2012-06-29T16:33:51Z</time></trkpt>
<trkpt lat="48.20562635" lon="11.69966614"><ele>498.580933</ele><time>2012-06-29T16:34:02Z</time></trkpt>
<trkpt lat="48.20653687" lon="11.69892903"><ele>498.580933</ele><time>2012-06-29T16:34:15Z</time></trkpt>
<trkpt lat="48.20754404" lon="11.69805991"><ele>501.945557</ele><time>2012-06-29T16:34:31Z</time></trkpt>
<trkpt lat="48.20817537" lon="11.69746430"><ele>501.945557</ele><time>2012-06-29T16:34:41Z</time></trkpt>
<trkpt lat="48.20881683" lon="11.69681562"><ele>500.984131</ele><time>2012-06-29T16:34:50Z</time></trkpt>
<trkpt lat="48.20967799" lon="11.69585640"><ele>497.619629</ele><time>2012-06-29T16:35:01Z</time></trkpt>
<trkpt lat="48.21079832" lon="11.69466600"><ele>486.564453</ele><time>2012-06-29T16:35:15Z</time></trkpt>
<trkpt lat="48.21172435" lon="11.69374575"><ele>484.161133</ele><time>2012-06-29T16:35:27Z</time></trkpt>
<trkpt lat="48.21270897" lon="11.69278527"><ele>486.08374</ele><time>2012-06-29T16:35:40Z</time></trkpt>
<trkpt lat="48.21352738" lon="11.69194356"><ele>489.929077</ele><time>2012-06-29T16:35:52Z</time></trkpt>
<trkpt lat="48.21425099" lon="11.69117770"><ele>492.812988</ele><time>2012-06-29T16:36:02Z</time></trkpt>
<trkpt lat="48.21513545" lon="11.69023197"><ele>492.812988</ele><time>2012-06-29T16:36:14Z</time></trkpt>
<trkpt lat="48.21588060" lon="11.68967558"><ele>491.851685</ele><time>2012-06-29T16:36:23Z</time></trkpt>
<trkpt lat="48.21686380" lon="11.68927769"><ele>491.851685</ele><time>2012-06-29T16:36:34Z</time></trkpt>
<trkpt lat="48.21844613" lon="11.68870613"><ele>493.774292</ele><time>2012-06-29T16:36:53Z</time></trkpt>
<trkpt lat="48.21871377" lon="11.68845836"><ele>493.774292</ele><time>2012-06-29T16:36:57Z</time></trkpt>
<trkpt lat="48.21898140" lon="11.68851444"><ele>493.293579</ele><time>2012-06-29T16:37:01Z</time></trkpt>
<trkpt lat="48.21898894" lon="11.68874167"><ele>493.774292</ele><time>2012-06-29T16:37:03Z</time></trkpt>
<trkpt lat="48.21898601" lon="11.68907703"><ele>494.255005</ele><time>2012-06-29T16:37:06Z</time></trkpt>
<trkpt lat="48.21905147" lon="11.69001823"><ele>497.138916</ele><time>2012-06-29T16:37:15Z</time></trkpt>
<trkpt lat="48.21910076" lon="11.69058518"><ele>497.619629</ele><time>2012-06-29T16:37:21Z</time></trkpt>
<trkpt lat="48.21903890" lon="11.69099917"><ele>496.658325</ele><time>2012-06-29T16:37:27Z</time></trkpt>
<trkpt lat="48.22027314" lon="11.69415386"><ele>492.812988</ele><time>2012-06-29T16:38:10Z</time></trkpt>
<trkpt lat="48.22080648" lon="11.69473708"><ele>491.370972</ele><time>2012-06-29T16:38:19Z</time></trkpt>
<trkpt lat="48.22110001" lon="11.69485333"><ele>491.370972</ele><time>2012-06-29T16:38:23Z</time></trkpt>
<trkpt lat="48.22220441" lon="11.69500421"><ele>491.851685</ele><time>2012-06-29T16:38:37Z</time></trkpt>
<trkpt lat="48.22312122" lon="11.69512642"><ele>492.332397</ele><time>2012-06-29T16:38:49Z</time></trkpt>
<trkpt lat="48.22319280" lon="11.69513077"><ele>492.332397</ele><time>2012-06-29T16:38:50Z</time></trkpt>
<trkpt lat="48.22415957" lon="11.69493631"><ele>490.890381</ele><time>2012-06-29T16:39:03Z</time></trkpt>
<trkpt lat="48.22478168" lon="11.69472174"><ele>490.40979</ele><time>2012-06-29T16:39:11Z</time></trkpt>
<trkpt lat="48.22588784" lon="11.69437087"><ele>490.40979</ele><time>2012-06-29T16:39:25Z</time></trkpt>
<trkpt lat="48.22702250" lon="11.69402294"><ele>489.448364</ele><time>2012-06-29T16:39:39Z</time></trkpt>
<trkpt lat="48.22797552" lon="11.69373133"><ele>487.525635</ele><time>2012-06-29T16:39:51Z</time></trkpt>
<trkpt lat="48.22899635" lon="11.69360837"><ele>488.487183</ele><time>2012-06-29T16:40:08Z</time></trkpt>
<trkpt lat="48.22899501" lon="11.69369789"><ele>488.487183</ele><time>2012-06-29T16:40:09Z</time></trkpt>
<trkpt lat="48.22904103" lon="11.69452711"><ele>489.448364</ele><time>2012-06-29T16:40:17Z</time></trkpt>
<trkpt lat="48.22913172" lon="11.69560687"><ele>489.448364</ele><time>2012-06-29T16:40:26Z</time></trkpt>
<trkpt lat="48.22918511" lon="11.69684286"><ele>489.448364</ele><time>2012-06-29T16:40:36Z</time></trkpt>
<trkpt lat="48.22930338" lon="11.69765767"><ele>490.40979</ele><time>2012-06-29T16:40:43Z</time></trkpt>
<trkpt lat="48.22954570" lon="11.69893666"><ele>489.929077</ele><time>2012-06-29T16:40:54Z</time></trkpt>
<trkpt lat="48.22971133" lon="11.70004651"><ele>488.967773</ele><time>2012-06-29T16:41:03Z</time></trkpt>
<trkpt lat="48.22977595" lon="11.70156724"><ele>488.487183</ele><time>2012-06-29T16:41:15Z</time></trkpt>
<trkpt lat="48.22979112" lon="11.70271455"><ele>488.487183</ele><time>2012-06-29T16:41:24Z</time></trkpt>
<trkpt lat="48.22985273" lon="11.70440007"><ele>488.487183</ele><time>2012-06-29T16:41:37Z</time></trkpt>
<trkpt lat="48.22988148" lon="11.70592968"><ele>488.487183</ele><time>2012-06-29T16:41:49Z</time></trkpt>
<trkpt lat="48.22992515" lon="11.70701665"><ele>488.487183</ele><time>2012-06-29T16:41:58Z</time></trkpt>
<trkpt lat="48.22998391" lon="11.70811770"><ele>489.448364</ele><time>2012-06-29T16:42:08Z</time></trkpt>
<trkpt lat="48.23001358" lon="11.70930684"><ele>488.00647</ele><time>2012-06-29T16:42:18Z</time></trkpt>
<trkpt lat="48.23006236" lon="11.71072279"><ele>488.487183</ele><time>2012-06-29T16:42:30Z</time></trkpt>
<trkpt lat="48.23012087" lon="11.71238417"><ele>489.929077</ele><time>2012-06-29T16:42:44Z</time></trkpt>
<trkpt lat="48.23013587" lon="11.71273814"><ele>489.929077</ele><time>2012-06-29T16:42:47Z</time></trkpt>
<trkpt lat="48.23030669" lon="11.71311515"><ele>489.929077</ele><time>2012-06-29T16:42:51Z</time></trkpt>
<trkpt lat="48.23038599" lon="11.71315966"><ele>489.929077</ele><time>2012-06-29T16:42:52Z</time></trkpt>
<trkpt lat="48.23111353" lon="11.71322504"><ele>491.370972</ele><time>2012-06-29T16:43:00Z</time></trkpt>
<trkpt lat="48.23231734" lon="11.71332973"><ele>488.967773</ele><time>2012-06-29T16:43:13Z</time></trkpt>
<trkpt lat="48.23240695" lon="11.71337290"><ele>488.967773</ele><time>2012-06-29T16:43:14Z</time></trkpt>
<trkpt lat="48.23294984" lon="11.71387145"><ele>489.448364</ele><time>2012-06-29T16:43:21Z</time></trkpt>
<trkpt lat="48.23360522" lon="11.71454586"><ele>490.890381</ele><time>2012-06-29T16:43:30Z</time></trkpt>
<trkpt lat="48.23460585" lon="11.71555823"><ele>491.851685</ele><time>2012-06-29T16:43:44Z</time></trkpt>
<trkpt lat="48.23564655" lon="11.71656716"><ele>491.370972</ele><time>2012-06-29T16:43:58Z</time></trkpt>
<trkpt lat="48.23588108" lon="11.71709731"><ele>491.851685</ele><time>2012-06-29T16:44:03Z</time></trkpt>
<trkpt lat="48.23588518" lon="11.71723050"><ele>491.370972</ele><time>2012-06-29T16:44:04Z</time></trkpt>
<trkpt lat="48.23594176" lon="11.71872483"><ele>490.890381</ele><time>2012-06-29T16:44:16Z</time></trkpt>
<trkpt lat="48.23603061" lon="11.72072433"><ele>490.40979</ele><time>2012-06-29T16:44:32Z</time></trkpt>
<trkpt lat="48.23609146" lon="11.72185421"><ele>489.448364</ele><time>2012-06-29T16:44:41Z</time></trkpt>
<trkpt lat="48.23628341" lon="11.72216099"><ele>489.448364</ele><time>2012-06-29T16:44:45Z</time></trkpt>
<trkpt lat="48.23636438" lon="11.72216057"><ele>489.448364</ele><time>2012-06-29T16:44:46Z</time></trkpt>
<trkpt lat="48.23726317" lon="11.72208790"><ele>490.890381</ele><time>2012-06-29T16:44:57Z</time></trkpt>
<trkpt lat="48.23830630" lon="11.72199880"><ele>490.890381</ele><time>2012-06-29T16:45:10Z</time></trkpt>
<trkpt lat="48.23949066" lon="11.72189863"><ele>492.332397</ele><time>2012-06-29T16:45:25Z</time></trkpt>
<trkpt lat="48.24050730" lon="11.72180803"><ele>492.812988</ele><time>2012-06-29T16:45:38Z</time></trkpt>
<trkpt lat="48.24153392" lon="11.72171272"><ele>491.851685</ele><time>2012-06-29T16:45:51Z</time></trkpt>
<trkpt lat="48.24266539" lon="11.72161516"><ele>493.293579</ele><time>2012-06-29T16:46:05Z</time></trkpt>
<trkpt lat="48.24370282" lon="11.72156998"><ele>495.216187</ele><time>2012-06-29T16:46:18Z</time></trkpt>
<trkpt lat="48.24614480" lon="11.72138440"><ele>494.255005</ele><time>2012-06-29T16:46:55Z</time></trkpt>
<trkpt lat="48.24669641" lon="11.72130151"><ele>493.293579</ele><time>2012-06-29T16:47:03Z</time></trkpt>
<trkpt lat="48.24758397" lon="11.72124141"><ele>494.255005</ele><time>2012-06-29T16:47:15Z</time></trkpt>
<trkpt lat="48.24830725" lon="11.72119690"><ele>494.255005</ele><time>2012-06-29T16:47:24Z</time></trkpt>
<trkpt lat="48.24946471" lon="11.72101610"><ele>492.332397</ele><time>2012-06-29T16:47:38Z</time></trkpt>
<trkpt lat="48.25052963" lon="11.72085567"><ele>490.890381</ele><time>2012-06-29T16:47:51Z</time></trkpt>
<trkpt lat="48.25172715" lon="11.72061855"><ele>489.448364</ele><time>2012-06-29T16:48:06Z</time></trkpt>
<trkpt lat="48.25265687" lon="11.72023382"><ele>488.967773</ele><time>2012-06-29T16:48:18Z</time></trkpt>
<trkpt lat="48.25352666" lon="11.71989125"><ele>487.525635</ele><time>2012-06-29T16:48:29Z</time></trkpt>
<trkpt lat="48.25454070" lon="11.71949848"><ele>486.08374</ele><time>2012-06-29T16:48:42Z</time></trkpt>
<trkpt lat="48.25553144" lon="11.71912054"><ele>485.603027</ele><time>2012-06-29T16:48:55Z</time></trkpt>
<trkpt lat="48.25645085" lon="11.71876808"><ele>485.122437</ele><time>2012-06-29T16:49:07Z</time></trkpt>
<trkpt lat="48.25714798" lon="11.71850036"><ele>484.641846</ele><time>2012-06-29T16:49:16Z</time></trkpt>
<trkpt lat="48.25814886" lon="11.71811571"><ele>484.161133</ele><time>2012-06-29T16:49:29Z</time></trkpt>
<trkpt lat="48.25905427" lon="11.71774632"><ele>483.199829</ele><time>2012-06-29T16:49:41Z</time></trkpt>
<trkpt lat="48.26007980" lon="11.71730032"><ele>482.238525</ele><time>2012-06-29T16:49:55Z</time></trkpt>
<trkpt lat="48.26061063" lon="11.71711978"><ele>485.603027</ele><time>2012-06-29T16:50:03Z</time></trkpt>
<trkpt lat="48.26075605" lon="11.71726428"><ele>485.603027</ele><time>2012-06-29T16:50:07Z</time></trkpt>
<trkpt lat="48.26128713" lon="11.71886422"><ele>482.238525</ele><time>2012-06-29T16:50:24Z</time></trkpt>
<trkpt lat="48.26178535" lon="11.72037690"><ele>480.315918</ele><time>2012-06-29T16:50:38Z</time></trkpt>
<trkpt lat="48.26228751" lon="11.72186368"><ele>479.835083</ele><time>2012-06-29T16:50:52Z</time></trkpt>
<trkpt lat="48.26292990" lon="11.72374944"><ele>480.315918</ele><time>2012-06-29T16:51:10Z</time></trkpt>
<trkpt lat="48.26328797" lon="11.72479575"><ele>480.796631</ele><time>2012-06-29T16:51:20Z</time></trkpt>
<trkpt lat="48.26380941" lon="11.72633258"><ele>480.796631</ele><time>2012-06-29T16:51:35Z</time></trkpt>
<trkpt lat="48.26429464" lon="11.72774275"><ele>481.277222</ele><time>2012-06-29T16:51:49Z</time></trkpt>
<trkpt lat="48.26458558" lon="11.72860508"><ele>480.796631</ele><time>2012-06-29T16:51:59Z</time></trkpt>
<trkpt lat="48.26494575" lon="11.72952885"><ele>481.757813</ele><time>2012-06-29T16:52:10Z</time></trkpt>
<trkpt lat="48.26522218" lon="11.73040073"><ele>481.757813</ele><time>2012-06-29T16:52:19Z</time></trkpt>
<trkpt lat="48.26558587" lon="11.73147915"><ele>481.757813</ele><time>2012-06-29T16:52:30Z</time></trkpt>
<trkpt lat="48.26596473" lon="11.73269696"><ele>481.277222</ele><time>2012-06-29T16:52:42Z</time></trkpt>
<trkpt lat="48.26599340" lon="11.73280760"><ele>481.277222</ele><time>2012-06-29T16:52:43Z</time></trkpt>
<trkpt lat="48.26622583" lon="11.73406606"><ele>478.393188</ele><time>2012-06-29T16:52:53Z</time></trkpt>
<trkpt lat="48.26645373" lon="11.73484365"><ele>479.354492</ele><time>2012-06-29T16:53:00Z</time></trkpt>
<trkpt lat="48.26674308" lon="11.73614535"><ele>480.796631</ele><time>2012-06-29T16:53:12Z</time></trkpt>
<trkpt lat="48.26670829" lon="11.73692848"><ele>480.315918</ele><time>2012-06-29T16:53:19Z</time></trkpt>
<trkpt lat="48.26663285" lon="11.73805475"><ele>478.873901</ele><time>2012-06-29T16:53:29Z</time></trkpt>
<trkpt lat="48.26649028" lon="11.73932956"><ele>479.835083</ele><time>2012-06-29T16:53:41Z</time></trkpt>
<trkpt lat="48.26633278" lon="11.74078256"><ele>480.796631</ele><time>2012-06-29T16:53:54Z</time></trkpt>
<trkpt lat="48.26618677" lon="11.74209768"><ele>480.796631</ele><time>2012-06-29T16:54:06Z</time></trkpt>
<trkpt lat="48.26603011" lon="11.74382402"><ele>480.315918</ele><time>2012-06-29T16:54:21Z</time></trkpt>
<trkpt lat="48.26605367" lon="11.74505322"><ele>481.277222</ele><time>2012-06-29T16:54:31Z</time></trkpt>
<trkpt lat="48.26621678" lon="11.74615888"><ele>479.835083</ele><time>2012-06-29T16:54:40Z</time></trkpt>
<trkpt lat="48.26634619" lon="11.74730879"><ele>478.873901</ele><time>2012-06-29T16:54:50Z</time></trkpt>
<trkpt lat="48.26634821" lon="11.74753116"><ele>478.873901</ele><time>2012-06-29T16:54:52Z</time></trkpt>
<trkpt lat="48.26648215" lon="11.74777055"><ele>479.354492</ele><time>2012-06-29T16:54:56Z</time></trkpt>
<trkpt lat="48.26653630" lon="11.74781690"><ele>479.354492</ele><time>2012-06-29T16:54:57Z</time></trkpt>
<trkpt lat="48.26711934" lon="11.74833138"><ele>481.277222</ele><time>2012-06-29T16:55:07Z</time></trkpt>
<trkpt lat="48.26777170" lon="11.74891359"><ele>482.238525</ele><time>2012-06-29T16:55:17Z</time></trkpt>
<trkpt lat="48.26849699" lon="11.74956076"><ele>482.238525</ele><time>2012-06-29T16:55:28Z</time></trkpt>
<trkpt lat="48.26899370" lon="11.74985815"><ele>483.199829</ele><time>2012-06-29T16:55:35Z</time></trkpt>
<trkpt lat="48.26954783" lon="11.74989277"><ele>482.238525</ele><time>2012-06-29T16:55:42Z</time></trkpt>
<trkpt lat="48.27023808" lon="11.74972588"><ele>482.719238</ele><time>2012-06-29T16:55:51Z</time></trkpt>
<trkpt lat="48.27063027" lon="11.74960820"><ele>483.199829</ele><time>2012-06-29T16:55:56Z</time></trkpt>
<trkpt lat="48.27132798" lon="11.74939664"><ele>482.238525</ele><time>2012-06-29T16:56:05Z</time></trkpt>
<trkpt lat="48.27212879" lon="11.74916455"><ele>483.199829</ele><time>2012-06-29T16:56:16Z</time></trkpt>
<trkpt lat="48.27228787" lon="11.74911845"><ele>482.238525</ele><time>2012-06-29T16:56:19Z</time></trkpt>
<trkpt lat="48.27245685" lon="11.74917712"><ele>481.757813</ele><time>2012-06-29T16:56:23Z</time></trkpt>
<trkpt lat="48.27280546" lon="11.74962639"><ele>481.277222</ele><time>2012-06-29T16:56:31Z</time></trkpt>
<trkpt lat="48.27312824" lon="11.75005236"><ele>483.68042</ele><time>2012-06-29T16:56:37Z</time></trkpt>
<trkpt lat="48.27334374" lon="11.75037950"><ele>483.68042</ele><time>2012-06-29T16:56:41Z</time></trkpt>
<trkpt lat="48.27359369" lon="11.75030373"><ele>483.199829</ele><time>2012-06-29T16:56:45Z</time></trkpt>
<trkpt lat="48.27384523" lon="11.75015654"><ele>482.719238</ele><time>2012-06-29T16:56:49Z</time></trkpt>
<trkpt lat="48.27410901" lon="11.75018923"><ele>482.719238</ele><time>2012-06-29T16:56:53Z</time></trkpt>
<trkpt lat="48.27450992" lon="11.75056634"><ele>481.757813</ele><time>2012-06-29T16:57:00Z</time></trkpt>
<trkpt lat="48.27480203" lon="11.75093288"><ele>482.719238</ele><time>2012-06-29T16:57:05Z</time></trkpt>
<trkpt lat="48.27534081" lon="11.75139640"><ele>483.199829</ele><time>2012-06-29T16:57:13Z</time></trkpt>
<trkpt lat="48.27650146" lon="11.75152900"><ele>480.315918</ele><time>2012-06-29T16:57:28Z</time></trkpt>
<trkpt lat="48.27727234" lon="11.75161047"><ele>481.277222</ele><time>2012-06-29T16:57:38Z</time></trkpt>
<trkpt lat="48.27860607" lon="11.75171063"><ele>481.757813</ele><time>2012-06-29T16:57:55Z</time></trkpt>
<trkpt lat="48.28167359" lon="11.75192554"><ele>488.00647</ele><time>2012-06-29T16:58:32Z</time></trkpt>
<trkpt lat="48.28304194" lon="11.75186427"><ele>487.045044</ele><time>2012-06-29T16:58:49Z</time></trkpt>
<trkpt lat="48.28465772" lon="11.75185371"><ele>485.122437</ele><time>2012-06-29T16:59:09Z</time></trkpt>
<trkpt lat="48.28685260" lon="11.75192781"><ele>476.951294</ele><time>2012-06-29T16:59:36Z</time></trkpt>
<trkpt lat="48.28798684" lon="11.75197508"><ele>477.912476</ele><time>2012-06-29T16:59:50Z</time></trkpt>
<trkpt lat="48.28892067" lon="11.75196662"><ele>473.106079</ele><time>2012-06-29T17:00:02Z</time></trkpt>
<trkpt lat="48.28962173" lon="11.75197919"><ele>471.18335</ele><time>2012-06-29T17:00:11Z</time></trkpt>
<trkpt lat="48.29071599" lon="11.75199662"><ele>469.741333</ele><time>2012-06-29T17:00:25Z</time></trkpt>
<trkpt lat="48.29166281" lon="11.75204331"><ele>476.470581</ele><time>2012-06-29T17:00:37Z</time></trkpt>
<trkpt lat="48.29253612" lon="11.75209754"><ele>480.315918</ele><time>2012-06-29T17:00:48Z</time></trkpt>
<trkpt lat="48.29355662" lon="11.75205966"><ele>481.757813</ele><time>2012-06-29T17:01:01Z</time></trkpt>
<trkpt lat="48.29432683" lon="11.75206200"><ele>479.835083</ele><time>2012-06-29T17:01:11Z</time></trkpt>
<trkpt lat="48.29500761" lon="11.75204256"><ele>475.028687</ele><time>2012-06-29T17:01:20Z</time></trkpt>
<trkpt lat="48.29678298" lon="11.75201221"><ele>472.144653</ele><time>2012-06-29T17:01:42Z</time></trkpt>
<trkpt lat="48.29742235" lon="11.75186377"><ele>469.260742</ele><time>2012-06-29T17:01:50Z</time></trkpt>
<trkpt lat="48.29772033" lon="11.75172807"><ele>469.260742</ele><time>2012-06-29T17:01:54Z</time></trkpt>
<trkpt lat="48.29861091" lon="11.75110479"><ele>466.857422</ele><time>2012-06-29T17:02:06Z</time></trkpt>
<trkpt lat="48.29972000" lon="11.75055502"><ele>465.896118</ele><time>2012-06-29T17:02:20Z</time></trkpt>
<trkpt lat="48.30027270" lon="11.75043306"><ele>466.376709</ele><time>2012-06-29T17:02:27Z</time></trkpt>
<trkpt lat="48.30127710" lon="11.75030222"><ele>466.857422</ele><time>2012-06-29T17:02:40Z</time></trkpt>
<trkpt lat="48.30249424" lon="11.75015076"><ele>470.702637</ele><time>2012-06-29T17:02:55Z</time></trkpt>
<trkpt lat="48.30328667" lon="11.75008119"><ele>468.299316</ele><time>2012-06-29T17:03:05Z</time></trkpt>
<trkpt lat="48.30361038" lon="11.74982001"><ele>467.338135</ele><time>2012-06-29T17:03:10Z</time></trkpt>
<trkpt lat="48.30366033" lon="11.74973703"><ele>467.338135</ele><time>2012-06-29T17:03:11Z</time></trkpt>
<trkpt lat="48.30397314" lon="11.74910638"><ele>463.973389</ele><time>2012-06-29T17:03:18Z</time></trkpt>
<trkpt lat="48.30408680" lon="11.74848301"><ele>462.531372</ele><time>2012-06-29T17:03:24Z</time></trkpt>
<trkpt lat="48.30426509" lon="11.74820641"><ele>461.57019</ele><time>2012-06-29T17:03:28Z</time></trkpt>
<trkpt lat="48.30440146" lon="11.74822326"><ele>462.050781</ele><time>2012-06-29T17:03:30Z</time></trkpt>
<trkpt lat="48.30513563" lon="11.74845711"><ele>463.973389</ele><time>2012-06-29T17:03:40Z</time></trkpt>
<trkpt lat="48.30612076" lon="11.74872533"><ele>466.857422</ele><time>2012-06-29T17:03:53Z</time></trkpt>
<trkpt lat="48.30674504" lon="11.74874017"><ele>465.415527</ele><time>2012-06-29T17:04:01Z</time></trkpt>
<trkpt lat="48.30815261" lon="11.74899976"><ele>462.531372</ele><time>2012-06-29T17:04:19Z</time></trkpt>
<trkpt lat="48.30907345" lon="11.74898953"><ele>461.57019</ele><time>2012-06-29T17:04:31Z</time></trkpt>
<trkpt lat="48.31002706" lon="11.74894687"><ele>458.205566</ele><time>2012-06-29T17:04:43Z</time></trkpt>
<trkpt lat="48.31008556" lon="11.74893999"><ele>459.16687</ele><time>2012-06-29T17:04:44Z</time></trkpt>
<trkpt lat="48.31039997" lon="11.74868686"><ele>459.16687</ele><time>2012-06-29T17:04:55Z</time></trkpt>
<trkpt lat="48.31037750" lon="11.74861771"><ele>459.647583</ele><time>2012-06-29T17:04:56Z</time></trkpt>
<trkpt lat="48.31028866" lon="11.74833583"><ele>458.686157</ele><time>2012-06-29T17:05:11Z</time></trkpt>
<trkpt lat="48.31024264" lon="11.74829249"><ele>458.205566</ele><time>2012-06-29T17:06:37Z</time></trkpt>
<trkpt lat="48.31025789" lon="11.74829291"><ele>463.012085</ele><time>2012-06-29T17:08:23Z</time></trkpt>
<trkpt lat="48.31019604" lon="11.74822401"><ele>460.128174</ele><time>2012-06-29T17:08:27Z</time></trkpt>
<trkpt lat="48.31011389" lon="11.74793785"><ele>457.724976</ele><time>2012-06-29T17:08:34Z</time></trkpt>
<trkpt lat="48.30996042" lon="11.74737384"><ele>457.724976</ele><time>2012-06-29T17:08:42Z</time></trkpt>
<trkpt lat="48.30982195" lon="11.74662039"><ele>458.686157</ele><time>2012-06-29T17:08:51Z</time></trkpt>
<trkpt lat="48.30974492" lon="11.74560467"><ele>458.686157</ele><time>2012-06-29T17:09:01Z</time></trkpt>
<trkpt lat="48.30966890" lon="11.74453153"><ele>458.686157</ele><time>2012-06-29T17:09:11Z</time></trkpt>
<trkpt lat="48.30958684" lon="11.74306805"><ele>459.647583</ele><time>2012-06-29T17:09:24Z</time></trkpt>
<trkpt lat="48.30953605" lon="11.74185502"><ele>459.16687</ele><time>2012-06-29T17:09:35Z</time></trkpt>
<trkpt lat="48.30967527" lon="11.74161153"><ele>458.686157</ele><time>2012-06-29T17:09:39Z</time></trkpt>
<trkpt lat="48.30980913" lon="11.74164925"><ele>458.686157</ele><time>2012-06-29T17:09:41Z</time></trkpt>
<trkpt lat="48.31060851" lon="11.74197614"><ele>459.16687</ele><time>2012-06-29T17:09:53Z</time></trkpt>
<trkpt lat="48.31146020" lon="11.74230974"><ele>458.205566</ele><time>2012-06-29T17:10:05Z</time></trkpt>
<trkpt lat="48.31265529" lon="11.74276765"><ele>460.608765</ele><time>2012-06-29T17:10:21Z</time></trkpt>
<trkpt lat="48.31354829" lon="11.74309839"><ele>459.16687</ele><time>2012-06-29T17:10:34Z</time></trkpt>
<trkpt lat="48.31380637" lon="11.74319772"><ele>459.16687</ele><time>2012-06-29T17:10:40Z</time></trkpt>
<trkpt lat="48.31486920" lon="11.74364456"><ele>461.089478</ele><time>2012-06-29T17:11:14Z</time></trkpt>
<trkpt lat="48.31573924" lon="11.74395645"><ele>461.089478</ele><time>2012-06-29T17:11:26Z</time></trkpt>
<trkpt lat="48.31661599" lon="11.74429659"><ele>458.205566</ele><time>2012-06-29T17:11:38Z</time></trkpt>
<trkpt lat="48.31727665" lon="11.74471074"><ele>455.802246</ele><time>2012-06-29T17:11:48Z</time></trkpt>
<trkpt lat="48.31819388" lon="11.74536604"><ele>457.724976</ele><time>2012-06-29T17:12:02Z</time></trkpt>
<trkpt lat="48.31920172" lon="11.74612007"><ele>456.76355</ele><time>2012-06-29T17:12:17Z</time></trkpt>
<trkpt lat="48.32017310" lon="11.74680387"><ele>453.398926</ele><time>2012-06-29T17:12:32Z</time></trkpt>
<trkpt lat="48.32111564" lon="11.74740208"><ele>451.476318</ele><time>2012-06-29T17:12:53Z</time></trkpt>
<trkpt lat="48.32142293" lon="11.74766452"><ele>453.398926</ele><time>2012-06-29T17:13:00Z</time></trkpt>
<trkpt lat="48.32216967" lon="11.74822770"><ele>454.84082</ele><time>2012-06-29T17:13:13Z</time></trkpt>
<trkpt lat="48.32287123" lon="11.74876573"><ele>454.84082</ele><time>2012-06-29T17:13:24Z</time></trkpt>
<trkpt lat="48.32367129" lon="11.74932866"><ele>449.072998</ele><time>2012-06-29T17:13:36Z</time></trkpt>
<trkpt lat="48.32477334" lon="11.75010525"><ele>451.476318</ele><time>2012-06-29T17:13:52Z</time></trkpt>
<trkpt lat="48.32570541" lon="11.75077806"><ele>450.034424</ele><time>2012-06-29T17:14:05Z</time></trkpt>
<trkpt lat="48.32641418" lon="11.75129782"><ele>451.476318</ele><time>2012-06-29T17:14:15Z</time></trkpt>
<trkpt lat="48.32826876" lon="11.75262384"><ele>444.266479</ele><time>2012-06-29T17:14:41Z</time></trkpt>
<trkpt lat="48.32903864" lon="11.75315978"><ele>447.150269</ele><time>2012-06-29T17:14:53Z</time></trkpt>
<trkpt lat="48.32922648" lon="11.75303145"><ele>448.111816</ele><time>2012-06-29T17:14:57Z</time></trkpt>
<trkpt lat="48.32947701" lon="11.75222394"><ele>451.476318</ele><time>2012-06-29T17:15:06Z</time></trkpt>
<trkpt lat="48.32979770" lon="11.75122742"><ele>452.918213</ele><time>2012-06-29T17:15:15Z</time></trkpt>
<trkpt lat="48.33022040" lon="11.74991330"><ele>455.321533</ele><time>2012-06-29T17:15:26Z</time></trkpt>
<trkpt lat="48.33079800" lon="11.74811748"><ele>456.282959</ele><time>2012-06-29T17:15:41Z</time></trkpt>
<trkpt lat="48.33142899" lon="11.74622174"><ele>453.879639</ele><time>2012-06-29T17:15:57Z</time></trkpt>
<trkpt lat="48.33192788" lon="11.74467562"><ele>453.398926</ele><time>2012-06-29T17:16:10Z</time></trkpt>
<trkpt lat="48.33243373" lon="11.74306034"><ele>453.879639</ele><time>2012-06-29T17:16:24Z</time></trkpt>
<trkpt lat="48.33255694" lon="11.74239432"><ele>453.879639</ele><time>2012-06-29T17:16:30Z</time></trkpt>
<trkpt lat="48.33261562" lon="11.74215124"><ele>454.84082</ele><time>2012-06-29T17:16:34Z</time></trkpt>
<trkpt lat="48.33269265" lon="11.74198804"><ele>454.84082</ele><time>2012-06-29T17:16:38Z</time></trkpt>
<trkpt lat="48.33246843" lon="11.73996792"><ele>451.957031</ele><time>2012-06-29T17:16:59Z</time></trkpt>
<trkpt lat="48.33238578" lon="11.73867820"><ele>450.034424</ele><time>2012-06-29T17:17:09Z</time></trkpt>
<trkpt lat="48.33222494" lon="11.73656688"><ele>450.515015</ele><time>2012-06-29T17:17:25Z</time></trkpt>
<trkpt lat="48.33216073" lon="11.73522829"><ele>450.515015</ele><time>2012-06-29T17:17:35Z</time></trkpt>
<trkpt lat="48.33231521" lon="11.73421618"><ele>450.995605</ele><time>2012-06-29T17:17:43Z</time></trkpt>
<trkpt lat="48.33258209" lon="11.73338679"><ele>454.84082</ele><time>2012-06-29T17:17:50Z</time></trkpt>
<trkpt lat="48.33304393" lon="11.73246486"><ele>454.360229</ele><time>2012-06-29T17:17:59Z</time></trkpt>
<trkpt lat="48.33345213" lon="11.73164394"><ele>454.360229</ele><time>2012-06-29T17:18:07Z</time></trkpt>
<trkpt lat="48.33363578" lon="11.73112133"><ele>455.321533</ele><time>2012-06-29T17:18:12Z</time></trkpt>
<trkpt lat="48.33367626" lon="11.73100817"><ele>463.492798</ele><time>2012-06-29T17:19:05Z</time></trkpt>
<trkpt lat="48.33368137" lon="11.73102192"><ele>451.476318</ele><time>2012-06-29T17:19:44Z</time></trkpt>
<trkpt lat="48.33379570" lon="11.73014483"><ele>455.321533</ele><time>2012-06-29T17:20:01Z</time></trkpt>
<trkpt lat="48.33394046" lon="11.72986605"><ele>454.360229</ele><time>2012-06-29T17:20:07Z</time></trkpt>
<trkpt lat="48.33397063" lon="11.72983579"><ele>454.360229</ele><time>2012-06-29T17:20:08Z</time></trkpt>
<trkpt lat="48.33403844" lon="11.72978978"><ele>453.879639</ele><time>2012-06-29T17:20:10Z</time></trkpt>
<trkpt lat="48.33439166" lon="11.72978240"><ele>454.360229</ele><time>2012-06-29T17:20:17Z</time></trkpt>
<trkpt lat="48.33494302" lon="11.72982171"><ele>455.802246</ele><time>2012-06-29T17:20:26Z</time></trkpt>
<trkpt lat="48.33585002" lon="11.72994593"><ele>456.282959</ele><time>2012-06-29T17:20:39Z</time></trkpt>
<trkpt lat="48.33656559" lon="11.73014886"><ele>454.84082</ele><time>2012-06-29T17:20:49Z</time></trkpt>
<trkpt lat="48.33729892" lon="11.73047064"><ele>452.918213</ele><time>2012-06-29T17:20:59Z</time></trkpt>
<trkpt lat="48.33809646" lon="11.73091220"><ele>451.957031</ele><time>2012-06-29T17:21:10Z</time></trkpt>
<trkpt lat="48.33901780" lon="11.73157403"><ele>451.476318</ele><time>2012-06-29T17:21:23Z</time></trkpt>
<trkpt lat="48.33982925" lon="11.73224249"><ele>452.437622</ele><time>2012-06-29T17:21:35Z</time></trkpt>
<trkpt lat="48.34072268" lon="11.73306819"><ele>452.918213</ele><time>2012-06-29T17:21:49Z</time></trkpt>
<trkpt lat="48.34148451" lon="11.73375023"><ele>452.437622</ele><time>2012-06-29T17:22:01Z</time></trkpt>
<trkpt lat="48.34222019" lon="11.73435171"><ele>451.957031</ele><time>2012-06-29T17:22:12Z</time></trkpt>
<trkpt lat="48.34301144" lon="11.73481800"><ele>450.995605</ele><time>2012-06-29T17:22:23Z</time></trkpt>
<trkpt lat="48.34371259" lon="11.73491674"><ele>450.995605</ele><time>2012-06-29T17:22:51Z</time></trkpt>
<trkpt lat="48.34404501" lon="11.73504280"><ele>450.995605</ele><time>2012-06-29T17:22:59Z</time></trkpt>
<trkpt lat="48.34456637" lon="11.73525142"><ele>450.995605</ele><time>2012-06-29T17:23:08Z</time></trkpt>
<trkpt lat="48.34530054" lon="11.73552702"><ele>450.515015</ele><time>2012-06-29T17:23:19Z</time></trkpt>
<trkpt lat="48.34629027" lon="11.73590521"><ele>449.553711</ele><time>2012-06-29T17:23:33Z</time></trkpt>
<trkpt lat="48.34697885" lon="11.73613580"><ele>448.111816</ele><time>2012-06-29T17:23:43Z</time></trkpt>
<trkpt lat="48.34785568" lon="11.73644928"><ele>447.630981</ele><time>2012-06-29T17:23:56Z</time></trkpt>
<trkpt lat="48.34884340" lon="11.73680283"><ele>447.630981</ele><time>2012-06-29T17:24:11Z</time></trkpt>
<trkpt lat="48.34913232" lon="11.73695765"><ele>449.072998</ele><time>2012-06-29T17:24:18Z</time></trkpt>
<trkpt lat="48.34958201" lon="11.73714230"><ele>453.398926</ele><time>2012-06-29T17:24:28Z</time></trkpt>
<trkpt lat="48.35019255" lon="11.73739200"><ele>454.84082</ele><time>2012-06-29T17:24:40Z</time></trkpt>
<trkpt lat="48.35072363" lon="11.73759811"><ele>457.244263</ele><time>2012-06-29T17:24:50Z</time></trkpt>
<trkpt lat="48.35105346" lon="11.73772006"><ele>457.724976</ele><time>2012-06-29T17:24:56Z</time></trkpt>
<trkpt lat="48.35169643" lon="11.73787856"><ele>461.57019</ele><time>2012-06-29T17:25:06Z</time></trkpt>
<trkpt lat="48.35285020" lon="11.73818878"><ele>462.050781</ele><time>2012-06-29T17:25:20Z</time></trkpt>
<trkpt lat="48.35350474" lon="11.73849413"><ele>456.282959</ele><time>2012-06-29T17:25:28Z</time></trkpt>
<trkpt lat="48.35364045" lon="11.73860846"><ele>450.515015</ele><time>2012-06-29T17:25:49Z</time></trkpt>
<trkpt lat="48.35327231" lon="11.73893049"><ele>450.034424</ele><time>2012-06-29T17:26:10Z</time></trkpt>
<trkpt lat="48.35333685" lon="11.73900040"><ele>449.072998</ele><time>2012-06-29T17:26:14Z</time></trkpt>
<trkpt lat="48.35435953" lon="11.73926745"><ele>450.034424</ele><time>2012-06-29T17:26:33Z</time></trkpt>
<trkpt lat="48.35494434" lon="11.73947356"><ele>449.072998</ele><time>2012-06-29T17:26:42Z</time></trkpt>
<trkpt lat="48.35531071" lon="11.73960641"><ele>449.072998</ele><time>2012-06-29T17:26:48Z</time></trkpt>
<trkpt lat="48.35551430" lon="11.73978201"><ele>450.034424</ele><time>2012-06-29T17:26:56Z</time></trkpt>
<trkpt lat="48.35554138" lon="11.74009239"><ele>452.918213</ele><time>2012-06-29T17:27:02Z</time></trkpt>
<trkpt lat="48.35554096" lon="11.74019130"><ele>452.437622</ele><time>2012-06-29T17:27:04Z</time></trkpt>
<trkpt lat="48.35563534" lon="11.74022818"><ele>453.398926</ele><time>2012-06-29T17:27:09Z</time></trkpt>
<trkpt lat="48.35563199" lon="11.74085909"><ele>450.995605</ele><time>2012-06-29T17:27:22Z</time></trkpt>
<trkpt lat="48.35562252" lon="11.74143274"><ele>449.553711</ele><time>2012-06-29T17:27:33Z</time></trkpt>
<trkpt lat="48.35560659" lon="11.74199349"><ele>450.034424</ele><time>2012-06-29T17:27:40Z</time></trkpt>
<trkpt lat="48.35558086" lon="11.74310233"><ele>449.072998</ele><time>2012-06-29T17:27:51Z</time></trkpt>
<trkpt lat="48.35557407" lon="11.74417497"><ele>447.150269</ele><time>2012-06-29T17:28:01Z</time></trkpt>
<trkpt lat="48.35557725" lon="11.74467805"><ele>447.150269</ele><time>2012-06-29T17:28:06Z</time></trkpt>
<trkpt lat="48.35551145" lon="11.74519119"><ele>448.592407</ele><time>2012-06-29T17:28:13Z</time></trkpt>
<trkpt lat="48.35535999" lon="11.74540392"><ele>447.630981</ele><time>2012-06-29T17:28:19Z</time></trkpt>
<trkpt lat="48.35498281" lon="11.74566309"><ele>448.111816</ele><time>2012-06-29T17:28:27Z</time></trkpt>
<trkpt lat="48.35459406" lon="11.74598185"><ele>447.150269</ele><time>2012-06-29T17:28:34Z</time></trkpt>
<trkpt lat="48.35437378" lon="11.74648619"><ele>447.630981</ele><time>2012-06-29T17:28:40Z</time></trkpt>
<trkpt lat="48.35437931" lon="11.74709455"><ele>448.111816</ele><time>2012-06-29T17:28:46Z</time></trkpt>
<trkpt lat="48.35460420" lon="11.75034472"><ele>447.630981</ele><time>2012-06-29T17:29:18Z</time></trkpt>
<trkpt lat="48.35468458" lon="11.75151064"><ele>449.072998</ele><time>2012-06-29T17:29:30Z</time></trkpt>
<trkpt lat="48.35479648" lon="11.75275259"><ele>448.111816</ele><time>2012-06-29T17:29:44Z</time></trkpt>
<trkpt lat="48.35484501" lon="11.75368583"><ele>449.072998</ele><time>2012-06-29T17:29:53Z</time></trkpt>
<trkpt lat="48.35494945" lon="11.75447674"><ele>449.072998</ele><time>2012-06-29T17:30:01Z</time></trkpt>
<trkpt lat="48.35505682" lon="11.75572548"><ele>448.111816</ele><time>2012-06-29T17:30:13Z</time></trkpt>
<trkpt lat="48.35513955" lon="11.75690775"><ele>448.111816</ele><time>2012-06-29T17:30:24Z</time></trkpt>
<trkpt lat="48.35523745" lon="11.75818842"><ele>446.189087</ele><time>2012-06-29T17:30:36Z</time></trkpt>
<trkpt lat="48.35500276" lon="11.76019161"><ele>537.994995</ele><time>2012-06-29T17:30:47Z</time></trkpt>
<trkpt lat="48.35541171" lon="11.76041239"><ele>453.879639</ele><time>2012-06-29T17:30:57Z</time></trkpt>
<trkpt lat="48.35545848" lon="11.76091966"><ele>453.398926</ele><time>2012-06-29T17:31:05Z</time></trkpt>
<trkpt lat="48.35542956" lon="11.76082662"><ele>448.592407</ele><time>2012-06-29T17:31:43Z</time></trkpt>
<trkpt lat="48.35542923" lon="11.76081673"><ele>448.592407</ele><time>2012-06-29T17:32:01Z</time></trkpt>
<trkpt lat="48.35539310" lon="11.76078161"><ele>448.592407</ele><time>2012-06-29T17:32:04Z</time></trkpt>
<trkpt lat="48.35527693" lon="11.75993789"><ele>449.553711</ele><time>2012-06-29T17:32:20Z</time></trkpt>
<trkpt lat="48.35514466" lon="11.75980864"><ele>449.553711</ele><time>2012-06-29T17:32:24Z</time></trkpt>
<trkpt lat="48.35464912" lon="11.75982985"><ele>449.553711</ele><time>2012-06-29T17:32:32Z</time></trkpt>
<trkpt lat="48.35386810" lon="11.75994057"><ele>451.476318</ele><time>2012-06-29T17:32:44Z</time></trkpt>
<trkpt lat="48.35303636" lon="11.76008298"><ele>452.918213</ele><time>2012-06-29T17:32:57Z</time></trkpt>
<trkpt lat="48.35248508" lon="11.76023360"><ele>453.879639</ele><time>2012-06-29T17:33:06Z</time></trkpt>
<trkpt lat="48.35219591" lon="11.76032337"><ele>454.360229</ele><time>2012-06-29T17:33:11Z</time></trkpt>
<trkpt lat="48.35207529" lon="11.76052387"><ele>454.84082</ele><time>2012-06-29T17:33:15Z</time></trkpt>
<trkpt lat="48.35204755" lon="11.76061045"><ele>455.321533</ele><time>2012-06-29T17:33:35Z</time></trkpt>
<trkpt lat="48.35204604" lon="11.76059478"><ele>454.360229</ele><time>2012-06-29T17:33:49Z</time></trkpt>
<trkpt lat="48.35204143" lon="11.76058631"><ele>455.321533</ele><time>2012-06-29T17:33:58Z</time></trkpt>
<trkpt lat="48.35202022" lon="11.76054952"><ele>457.244263</ele><time>2012-06-29T17:34:09Z</time></trkpt>
<trkpt lat="48.35191218" lon="11.76053233"><ele>456.76355</ele><time>2012-06-29T17:34:20Z</time></trkpt>
<trkpt lat="48.35190162" lon="11.76051431"><ele>457.724976</ele><time>2012-06-29T17:34:26Z</time></trkpt>
<trkpt lat="48.35186105" lon="11.76038724"><ele>458.205566</ele><time>2012-06-29T17:34:37Z</time></trkpt>
<trkpt lat="48.35184504" lon="11.76028465"><ele>459.647583</ele><time>2012-06-29T17:34:43Z</time></trkpt>
<trkpt lat="48.35184018" lon="11.76027702"><ele>459.647583</ele><time>2012-06-29T17:34:44Z</time></trkpt>
<trkpt lat="48.35171512" lon="11.76029462"><ele>457.724976</ele><time>2012-06-29T17:34:54Z</time></trkpt>
<trkpt lat="48.35159753" lon="11.76030292"><ele>457.724976</ele><time>2012-06-29T17:35:04Z</time></trkpt>
<trkpt lat="48.35145503" lon="11.76032907"><ele>457.724976</ele><time>2012-06-29T17:35:18Z</time></trkpt>
<trkpt lat="48.35145914" lon="11.76031399"><ele>456.76355</ele><time>2012-06-29T17:35:27Z</time></trkpt>
<trkpt lat="48.35146995" lon="11.76033653"><ele>456.282959</ele><time>2012-06-29T17:36:58Z</time></trkpt>
<trkpt lat="48.35149175" lon="11.76040987"><ele>456.76355</ele><time>2012-06-29T17:37:02Z</time></trkpt>
<trkpt lat="48.35157079" lon="11.76049747"><ele>455.321533</ele><time>2012-06-29T17:37:13Z</time></trkpt>
<trkpt lat="48.35205451" lon="11.76048498"><ele>453.879639</ele><time>2012-06-29T17:37:31Z</time></trkpt>
<trkpt lat="48.35258123" lon="11.76039118"><ele>453.398926</ele><time>2012-06-29T17:37:39Z</time></trkpt>
<trkpt lat="48.35343693" lon="11.76024341"><ele>450.515015</ele><time>2012-06-29T17:37:50Z</time></trkpt>
<trkpt lat="48.35440152" lon="11.76007074"><ele>447.150269</ele><time>2012-06-29T17:38:02Z</time></trkpt>
<trkpt lat="48.35505816" lon="11.75997661"><ele>446.189087</ele><time>2012-06-29T17:38:10Z</time></trkpt>
<trkpt lat="48.35524307" lon="11.76014367"><ele>446.189087</ele><time>2012-06-29T17:38:14Z</time></trkpt>
<trkpt lat="48.35530099" lon="11.76047534"><ele>445.227661</ele><time>2012-06-29T17:38:18Z</time></trkpt>
<trkpt lat="48.35539972" lon="11.76072537"><ele>445.708374</ele><time>2012-06-29T17:38:22Z</time></trkpt>
<trkpt lat="48.35548949" lon="11.76086166"><ele>445.708374</ele><time>2012-06-29T17:38:26Z</time></trkpt>
<trkpt lat="48.35553710" lon="11.76155979"><ele>445.227661</ele><time>2012-06-29T17:38:36Z</time></trkpt>
<trkpt lat="48.35558999" lon="11.76251851"><ele>445.227661</ele><time>2012-06-29T17:38:46Z</time></trkpt>
<trkpt lat="48.35565998" lon="11.76366683"><ele>441.382446</ele><time>2012-06-29T17:38:57Z</time></trkpt>
<trkpt lat="48.35579971" lon="11.76516225"><ele>448.111816</ele><time>2012-06-29T17:39:12Z</time></trkpt>
<trkpt lat="48.35588923" lon="11.76616740"><ele>449.553711</ele><time>2012-06-29T17:39:22Z</time></trkpt>
<trkpt lat="48.35598947" lon="11.76756190"><ele>448.592407</ele><time>2012-06-29T17:39:35Z</time></trkpt>
<trkpt lat="48.35617212" lon="11.77004839"><ele>451.957031</ele><time>2012-06-29T17:39:59Z</time></trkpt>
<trkpt lat="48.35622224" lon="11.77092958"><ele>446.669678</ele><time>2012-06-29T17:40:09Z</time></trkpt>
<trkpt lat="48.35623909" lon="11.77118397"><ele>446.669678</ele><time>2012-06-29T17:40:15Z</time></trkpt>
<trkpt lat="48.35624739" lon="11.77128850"><ele>450.034424</ele><time>2012-06-29T17:40:26Z</time></trkpt>
<trkpt lat="48.35625501" lon="11.77148027"><ele>449.553711</ele><time>2012-06-29T17:40:31Z</time></trkpt>
<trkpt lat="48.35617949" lon="11.77155102"><ele>449.072998</ele><time>2012-06-29T17:40:35Z</time></trkpt>
<trkpt lat="48.35596978" lon="11.77144071"><ele>447.630981</ele><time>2012-06-29T17:40:44Z</time></trkpt>
<trkpt lat="48.35586232" lon="11.77150693"><ele>448.111816</ele><time>2012-06-29T17:40:49Z</time></trkpt>
<trkpt lat="48.35582661" lon="11.77156677"><ele>447.630981</ele><time>2012-06-29T17:40:51Z</time></trkpt>
<trkpt lat="48.35582544" lon="11.77173282"><ele>448.111816</ele><time>2012-06-29T17:40:57Z</time></trkpt>
<trkpt lat="48.35582511" lon="11.77177020"><ele>446.189087</ele><time>2012-06-29T17:41:13Z</time></trkpt>
<trkpt lat="48.35582494" lon="11.77176895"><ele>446.189087</ele><time>2012-06-29T17:41:15Z</time></trkpt>
<trkpt lat="48.35565822" lon="11.77174841"><ele>446.669678</ele><time>2012-06-29T17:41:23Z</time></trkpt>
<trkpt lat="48.35533116" lon="11.77187691"><ele>447.630981</ele><time>2012-06-29T17:41:33Z</time></trkpt>
<trkpt lat="48.35527492" lon="11.77170239"><ele>448.111816</ele><time>2012-06-29T17:41:37Z</time></trkpt>
<trkpt lat="48.35523770" lon="11.77155931"><ele>448.592407</ele><time>2012-06-29T17:41:49Z</time></trkpt>
<trkpt lat="48.35518146" lon="11.77156870"><ele>449.072998</ele><time>2012-06-29T17:42:02Z</time></trkpt>
<trkpt lat="48.35516520" lon="11.77158396"><ele>445.227661</ele><time>2012-06-29T17:42:14Z</time></trkpt>
<trkpt lat="48.35515539" lon="11.77156652"><ele>445.227661</ele><time>2012-06-29T17:42:35Z</time></trkpt>
<trkpt lat="48.35516025" lon="11.77156921"><ele>448.111816</ele><time>2012-06-29T17:42:52Z</time></trkpt>
<trkpt lat="48.35511030" lon="11.77160567"><ele>450.515015</ele><time>2012-06-29T17:43:19Z</time></trkpt>
<trkpt lat="48.35511667" lon="11.77170248"><ele>450.515015</ele><time>2012-06-29T17:43:26Z</time></trkpt>
<trkpt lat="48.35512103" lon="11.77172016"><ele>450.515015</ele><time>2012-06-29T17:43:27Z</time></trkpt>
<trkpt lat="48.35515472" lon="11.77196936"><ele>453.879639</ele><time>2012-06-29T17:43:41Z</time></trkpt>
<trkpt lat="48.35515363" lon="11.77199283"><ele>452.918213</ele><time>2012-06-29T17:43:46Z</time></trkpt>
<trkpt lat="48.35503318" lon="11.77208545"><ele>452.437622</ele><time>2012-06-29T17:43:59Z</time></trkpt>
<trkpt lat="48.35499471" lon="11.77211386"><ele>454.360229</ele><time>2012-06-29T17:44:07Z</time></trkpt>
<trkpt lat="48.35500720" lon="11.77218486"><ele>456.282959</ele><time>2012-06-29T17:44:18Z</time></trkpt>
<trkpt lat="48.35501181" lon="11.77224906"><ele>455.802246</ele><time>2012-06-29T17:44:29Z</time></trkpt>
<trkpt lat="48.35500854" lon="11.77228343"><ele>455.321533</ele><time>2012-06-29T17:44:36Z</time></trkpt>
<trkpt lat="48.35499966" lon="11.77230279"><ele>453.398926</ele><time>2012-06-29T17:44:50Z</time></trkpt>
<trkpt lat="48.35495314" lon="11.77237194"><ele>455.321533</ele><time>2012-06-29T17:45:01Z</time></trkpt>
<trkpt lat="48.35491232" lon="11.77238057"><ele>456.282959</ele><time>2012-06-29T17:45:11Z</time></trkpt>
<trkpt lat="48.35492455" lon="11.77236280"><ele>455.321533</ele><time>2012-06-29T17:45:43Z</time></trkpt>
<trkpt lat="48.35491818" lon="11.77232467"><ele>456.76355</ele><time>2012-06-29T17:46:36Z</time></trkpt>
<trkpt lat="48.35491257" lon="11.77233154"><ele>455.321533</ele><time>2012-06-29T17:48:54Z</time></trkpt>
<trkpt lat="48.35488625" lon="11.77221905"><ele>454.84082</ele><time>2012-06-29T17:49:06Z</time></trkpt>
<trkpt lat="48.35488021" lon="11.77214202"><ele>452.437622</ele><time>2012-06-29T17:49:18Z</time></trkpt>
<trkpt lat="48.35487024" lon="11.77206885"><ele>451.476318</ele><time>2012-06-29T17:49:26Z</time></trkpt>
<trkpt lat="48.35487912" lon="11.77183449"><ele>452.437622</ele><time>2012-06-29T17:49:39Z</time></trkpt>
<trkpt lat="48.35488759" lon="11.77178965"><ele>452.437622</ele><time>2012-06-29T17:49:42Z</time></trkpt>
<trkpt lat="48.35539101" lon="11.77167775"><ele>458.686157</ele><time>2012-06-29T17:50:17Z</time></trkpt>
<trkpt lat="48.35528841" lon="11.77153710"><ele>454.84082</ele><time>2012-06-29T17:50:28Z</time></trkpt>
<trkpt lat="48.35534407" lon="11.77151942"><ele>449.553711</ele><time>2012-06-29T17:50:39Z</time></trkpt>
<trkpt lat="48.35533996" lon="11.77151724"><ele>445.227661</ele><time>2012-06-29T17:50:43Z</time></trkpt>
<trkpt lat="48.35540626" lon="11.77150223"><ele>444.266479</ele><time>2012-06-29T17:50:48Z</time></trkpt>
<trkpt lat="48.35564665" lon="11.77144842"><ele>445.708374</ele><time>2012-06-29T17:50:56Z</time></trkpt>
<trkpt lat="48.35582544" lon="11.77146493"><ele>446.189087</ele><time>2012-06-29T17:51:02Z</time></trkpt>
<trkpt lat="48.35584665" lon="11.77148002"><ele>446.189087</ele><time>2012-06-29T17:51:03Z</time></trkpt>
<trkpt lat="48.35591655" lon="11.77223540"><ele>445.708374</ele><time>2012-06-29T17:51:17Z</time></trkpt>
<trkpt lat="48.35594815" lon="11.77272842"><ele>447.630981</ele><time>2012-06-29T17:51:24Z</time></trkpt>
<trkpt lat="48.35604932" lon="11.77339319"><ele>450.995605</ele><time>2012-06-29T17:51:33Z</time></trkpt>
<trkpt lat="48.35616943" lon="11.77478140"><ele>450.034424</ele><time>2012-06-29T17:51:47Z</time></trkpt>
<trkpt lat="48.35611931" lon="11.77498240"><ele>449.072998</ele><time>2012-06-29T17:51:51Z</time></trkpt>
<trkpt lat="48.35563945" lon="11.77497125"><ele>451.476318</ele><time>2012-06-29T17:52:44Z</time></trkpt>
<trkpt lat="48.35538045" lon="11.77499070"><ele>453.398926</ele><time>2012-06-29T17:52:52Z</time></trkpt>
<trkpt lat="48.35581002" lon="11.77472927"><ele>454.84082</ele><time>2012-06-29T17:53:07Z</time></trkpt>
<trkpt lat="48.35621654" lon="11.77465006"><ele>453.879639</ele><time>2012-06-29T17:53:17Z</time></trkpt>
<trkpt lat="48.35660613" lon="11.77461779"><ele>449.553711</ele><time>2012-06-29T17:53:24Z</time></trkpt>
<trkpt lat="48.35716797" lon="11.77462667"><ele>446.669678</ele><time>2012-06-29T17:53:32Z</time></trkpt>
<trkpt lat="48.35771732" lon="11.77482767"><ele>444.74707</ele><time>2012-06-29T17:53:39Z</time></trkpt>
<trkpt lat="48.35787272" lon="11.77494611"><ele>443.305054</ele><time>2012-06-29T17:53:41Z</time></trkpt>
<trkpt lat="48.35801647" lon="11.77509237"><ele>442.824463</ele><time>2012-06-29T17:53:43Z</time></trkpt>
<trkpt lat="48.35824806" lon="11.77547685"><ele>443.305054</ele><time>2012-06-29T17:53:48Z</time></trkpt>
<trkpt lat="48.35832870" lon="11.77560593"><ele>443.785767</ele><time>2012-06-29T17:53:52Z</time></trkpt>
<trkpt lat="48.35842676" lon="11.77589762"><ele>442.343872</ele><time>2012-06-29T17:53:58Z</time></trkpt>
<trkpt lat="48.35849357" lon="11.77635008"><ele>441.863159</ele><time>2012-06-29T17:54:05Z</time></trkpt>
<trkpt lat="48.35849533" lon="11.77641998"><ele>441.863159</ele><time>2012-06-29T17:54:06Z</time></trkpt>
<trkpt lat="48.35857797" lon="11.77781456"><ele>443.305054</ele><time>2012-06-29T17:54:22Z</time></trkpt>
<trkpt lat="48.35869457" lon="11.77911485"><ele>444.74707</ele><time>2012-06-29T17:54:35Z</time></trkpt>
<trkpt lat="48.35870270" lon="11.77954216"><ele>445.708374</ele><time>2012-06-29T17:54:42Z</time></trkpt>
<trkpt lat="48.35871820" lon="11.77965045"><ele>445.227661</ele><time>2012-06-29T17:54:48Z</time></trkpt>
<trkpt lat="48.35871602" lon="11.78035847"><ele>447.630981</ele><time>2012-06-29T17:55:02Z</time></trkpt>
<trkpt lat="48.35873505" lon="11.78112877"><ele>451.957031</ele><time>2012-06-29T17:55:14Z</time></trkpt>
<trkpt lat="48.35874612" lon="11.78182270"><ele>453.398926</ele><time>2012-06-29T17:55:26Z</time></trkpt>
<trkpt lat="48.35871871" lon="11.78240910"><ele>452.437622</ele><time>2012-06-29T17:55:35Z</time></trkpt>
<trkpt lat="48.35894032" lon="11.78368458"><ele>450.515015</ele><time>2012-06-29T17:55:48Z</time></trkpt>
<trkpt lat="48.35903789" lon="11.78449871"><ele>449.553711</ele><time>2012-06-29T17:55:56Z</time></trkpt>
<trkpt lat="48.35916379" lon="11.78595574"><ele>450.995605</ele><time>2012-06-29T17:56:10Z</time></trkpt>
<trkpt lat="48.35918474" lon="11.78626494"><ele>450.515015</ele><time>2012-06-29T17:56:13Z</time></trkpt>
<trkpt lat="48.35903755" lon="11.78784016"><ele>450.515015</ele><time>2012-06-29T17:56:29Z</time></trkpt>
<trkpt lat="48.35907460" lon="11.78848078"><ele>450.995605</ele><time>2012-06-29T17:56:35Z</time></trkpt>
<trkpt lat="48.35927434" lon="11.78982457"><ele>450.034424</ele><time>2012-06-29T17:56:51Z</time></trkpt>
<trkpt lat="48.35930946" lon="11.79024819"><ele>449.072998</ele><time>2012-06-29T17:56:58Z</time></trkpt>
<trkpt lat="48.35934307" lon="11.79073652"><ele>446.189087</ele><time>2012-06-29T17:57:08Z</time></trkpt>
<trkpt lat="48.35947551" lon="11.79119627"><ele>447.150269</ele><time>2012-06-29T17:57:17Z</time></trkpt>
<trkpt lat="48.35956519" lon="11.79145276"><ele>447.150269</ele><time>2012-06-29T17:57:21Z</time></trkpt>
<trkpt lat="48.35964826" lon="11.79205994"><ele>446.189087</ele><time>2012-06-29T17:57:30Z</time></trkpt>
<trkpt lat="48.35997784" lon="11.79577430"><ele>445.708374</ele><time>2012-06-29T17:58:08Z</time></trkpt>
<trkpt lat="48.35999209" lon="11.79597010"><ele>445.708374</ele><time>2012-06-29T17:58:10Z</time></trkpt>
<trkpt lat="48.36000189" lon="11.79639045"><ele>445.708374</ele><time>2012-06-29T17:58:15Z</time></trkpt>
<trkpt lat="48.36010935" lon="11.79761061"><ele>444.266479</ele><time>2012-06-29T17:58:29Z</time></trkpt>
<trkpt lat="48.36019870" lon="11.79876789"><ele>444.266479</ele><time>2012-06-29T17:58:42Z</time></trkpt>
<trkpt lat="48.36028076" lon="11.79993390"><ele>444.266479</ele><time>2012-06-29T17:58:53Z</time></trkpt>
<trkpt lat="48.36035544" lon="11.80089757"><ele>444.266479</ele><time>2012-06-29T17:59:03Z</time></trkpt>
<trkpt lat="48.36041839" lon="11.80162068"><ele>443.785767</ele><time>2012-06-29T17:59:12Z</time></trkpt>
<trkpt lat="48.36048771" lon="11.80247529"><ele>443.305054</ele><time>2012-06-29T17:59:21Z</time></trkpt>
<trkpt lat="48.36060019" lon="11.80400860"><ele>443.305054</ele><time>2012-06-29T17:59:35Z</time></trkpt>
<trkpt lat="48.36064227" lon="11.80520763"><ele>441.863159</ele><time>2012-06-29T17:59:46Z</time></trkpt>
<trkpt lat="48.36056465" lon="11.80553905"><ele>443.305054</ele><time>2012-06-29T17:59:50Z</time></trkpt>
<trkpt lat="48.36049316" lon="11.80579084"><ele>443.785767</ele><time>2012-06-29T17:59:55Z</time></trkpt>
<trkpt lat="48.36053180" lon="11.80600910"><ele>443.305054</ele><time>2012-06-29T18:00:01Z</time></trkpt>
<trkpt lat="48.36052635" lon="11.80599888"><ele>443.785767</ele><time>2012-06-29T18:00:29Z</time></trkpt>
<trkpt lat="48.36049969" lon="11.80599594"><ele>438.979126</ele><time>2012-06-29T18:00:48Z</time></trkpt>
<trkpt lat="48.36053079" lon="11.80597826"><ele>444.74707</ele><time>2012-06-29T18:01:29Z</time></trkpt>
<trkpt lat="48.36049601" lon="11.80590215"><ele>446.669678</ele><time>2012-06-29T18:02:23Z</time></trkpt>
<trkpt lat="48.36050020" lon="11.80587307"><ele>446.189087</ele><time>2012-06-29T18:02:32Z</time></trkpt>
<trkpt lat="48.36049810" lon="11.80578137"><ele>445.227661</ele><time>2012-06-29T18:02:36Z</time></trkpt>
<trkpt lat="48.36046072" lon="11.80572353"><ele>446.669678</ele><time>2012-06-29T18:02:57Z</time></trkpt>
<trkpt lat="48.36047472" lon="11.80574633"><ele>446.189087</ele><time>2012-06-29T18:03:10Z</time></trkpt>
<trkpt lat="48.36050497" lon="11.80592956"><ele>445.708374</ele><time>2012-06-29T18:03:18Z</time></trkpt>
<trkpt lat="48.36051495" lon="11.80595420"><ele>445.708374</ele><time>2012-06-29T18:03:19Z</time></trkpt>
<trkpt lat="48.36053733" lon="11.80599511"><ele>446.189087</ele><time>2012-06-29T18:03:26Z</time></trkpt>
<trkpt lat="48.36057890" lon="11.80607591"><ele>447.150269</ele><time>2012-06-29T18:03:46Z</time></trkpt>
<trkpt lat="48.36058578" lon="11.80608052"><ele>446.669678</ele><time>2012-06-29T18:03:47Z</time></trkpt>
<trkpt lat="48.36073992" lon="11.80623164"><ele>445.227661</ele><time>2012-06-29T18:03:55Z</time></trkpt>
<trkpt lat="48.36082567" lon="11.80662333"><ele>444.266479</ele><time>2012-06-29T18:04:00Z</time></trkpt>
<trkpt lat="48.36093446" lon="11.80744752"><ele>444.266479</ele><time>2012-06-29T18:04:08Z</time></trkpt>
<trkpt lat="48.36102247" lon="11.80851353"><ele>443.785767</ele><time>2012-06-29T18:04:18Z</time></trkpt>
<trkpt lat="48.36104041" lon="11.80894218"><ele>443.785767</ele><time>2012-06-29T18:04:22Z</time></trkpt>
<trkpt lat="48.36094511" lon="11.80931191"><ele>443.785767</ele><time>2012-06-29T18:04:26Z</time></trkpt>
<trkpt lat="48.36058678" lon="11.81007542"><ele>443.785767</ele><time>2012-06-29T18:04:35Z</time></trkpt>
<trkpt lat="48.36021270" lon="11.81094982"><ele>443.785767</ele><time>2012-06-29T18:04:45Z</time></trkpt>
<trkpt lat="48.35972009" lon="11.81201382"><ele>443.785767</ele><time>2012-06-29T18:04:57Z</time></trkpt>
<trkpt lat="48.35902959" lon="11.81331670"><ele>445.708374</ele><time>2012-06-29T18:05:12Z</time></trkpt>
<trkpt lat="48.35826105" lon="11.81456057"><ele>445.227661</ele><time>2012-06-29T18:05:27Z</time></trkpt>
<trkpt lat="48.35767885" lon="11.81536733"><ele>445.227661</ele><time>2012-06-29T18:05:37Z</time></trkpt>
<trkpt lat="48.35688097" lon="11.81635992"><ele>445.708374</ele><time>2012-06-29T18:05:50Z</time></trkpt>
<trkpt lat="48.35604899" lon="11.81745292"><ele>445.708374</ele><time>2012-06-29T18:06:04Z</time></trkpt>
<trkpt lat="48.35515221" lon="11.81867299"><ele>445.227661</ele><time>2012-06-29T18:06:19Z</time></trkpt>
<trkpt lat="48.35437177" lon="11.81972483"><ele>443.785767</ele><time>2012-06-29T18:06:32Z</time></trkpt>
<trkpt lat="48.35358588" lon="11.82077433"><ele>444.74707</ele><time>2012-06-29T18:06:45Z</time></trkpt>
<trkpt lat="48.35271710" lon="11.82193371"><ele>445.227661</ele><time>2012-06-29T18:07:00Z</time></trkpt>
<trkpt lat="48.35240755" lon="11.82234401"><ele>446.189087</ele><time>2012-06-29T18:07:07Z</time></trkpt>
<trkpt lat="48.35208225" lon="11.82278255"><ele>444.74707</ele><time>2012-06-29T18:07:15Z</time></trkpt>
<trkpt lat="48.35167975" lon="11.82333282"><ele>444.74707</ele><time>2012-06-29T18:07:23Z</time></trkpt>
<trkpt lat="48.35101431" lon="11.82423379"><ele>444.74707</ele><time>2012-06-29T18:07:35Z</time></trkpt>
<trkpt lat="48.35013916" lon="11.82541321"><ele>444.74707</ele><time>2012-06-29T18:07:50Z</time></trkpt>
<trkpt lat="48.34942770" lon="11.82637570"><ele>444.74707</ele><time>2012-06-29T18:08:02Z</time></trkpt>
<trkpt lat="48.34853838" lon="11.82756904"><ele>446.189087</ele><time>2012-06-29T18:08:17Z</time></trkpt>
<trkpt lat="48.34786967" lon="11.82831209"><ele>446.189087</ele><time>2012-06-29T18:08:28Z</time></trkpt>
<trkpt lat="48.34758385" lon="11.82860135"><ele>446.189087</ele><time>2012-06-29T18:08:33Z</time></trkpt>
<trkpt lat="48.34748033" lon="11.82880905"><ele>446.669678</ele><time>2012-06-29T18:08:36Z</time></trkpt>
<trkpt lat="48.34732208" lon="11.82886890"><ele>446.669678</ele><time>2012-06-29T18:08:39Z</time></trkpt>
<trkpt lat="48.34707909" lon="11.82900980"><ele>446.669678</ele><time>2012-06-29T18:08:43Z</time></trkpt>
<trkpt lat="48.34633252" lon="11.82942605"><ele>447.150269</ele><time>2012-06-29T18:08:54Z</time></trkpt>
<trkpt lat="48.34566263" lon="11.82996467"><ele>448.111816</ele><time>2012-06-29T18:09:04Z</time></trkpt>
<trkpt lat="48.34510859" lon="11.83069926"><ele>448.592407</ele><time>2012-06-29T18:09:14Z</time></trkpt>
<trkpt lat="48.34491095" lon="11.83100168"><ele>449.553711</ele><time>2012-06-29T18:09:19Z</time></trkpt>
<trkpt lat="48.34461045" lon="11.83138481"><ele>450.034424</ele><time>2012-06-29T18:09:25Z</time></trkpt>
<trkpt lat="48.34404300" lon="11.83187742"><ele>449.553711</ele><time>2012-06-29T18:09:35Z</time></trkpt>
<trkpt lat="48.34355593" lon="11.83219627"><ele>448.592407</ele><time>2012-06-29T18:09:44Z</time></trkpt>
<trkpt lat="48.34292343" lon="11.83258820"><ele>448.592407</ele><time>2012-06-29T18:09:54Z</time></trkpt>
<trkpt lat="48.34238112" lon="11.83273153"><ele>448.592407</ele><time>2012-06-29T18:10:02Z</time></trkpt>
<trkpt lat="48.34176639" lon="11.83286690"><ele>450.034424</ele><time>2012-06-29T18:10:12Z</time></trkpt>
<trkpt lat="48.34141678" lon="11.83293404"><ele>448.111816</ele><time>2012-06-29T18:10:20Z</time></trkpt>
<trkpt lat="48.34119374" lon="11.83300939"><ele>446.669678</ele><time>2012-06-29T18:10:24Z</time></trkpt>
<trkpt lat="48.34089912" lon="11.83328759"><ele>447.150269</ele><time>2012-06-29T18:10:29Z</time></trkpt>
<trkpt lat="48.34076802" lon="11.83355480"><ele>447.150269</ele><time>2012-06-29T18:10:32Z</time></trkpt>
<trkpt lat="48.34038983" lon="11.83500554"><ele>448.592407</ele><time>2012-06-29T18:10:46Z</time></trkpt>
<trkpt lat="48.33994953" lon="11.83665292"><ele>449.072998</ele><time>2012-06-29T18:11:02Z</time></trkpt>
<trkpt lat="48.33957762" lon="11.83804457"><ele>451.476318</ele><time>2012-06-29T18:11:16Z</time></trkpt>
<trkpt lat="48.33937881" lon="11.83875301"><ele>451.957031</ele><time>2012-06-29T18:11:23Z</time></trkpt>
<trkpt lat="48.33913741" lon="11.83920404"><ele>452.918213</ele><time>2012-06-29T18:11:28Z</time></trkpt>
<trkpt lat="48.33867204" lon="11.83959749"><ele>454.84082</ele><time>2012-06-29T18:11:35Z</time></trkpt>
<trkpt lat="48.33786604" lon="11.84012932"><ele>455.802246</ele><time>2012-06-29T18:11:47Z</time></trkpt>
<trkpt lat="48.33720328" lon="11.84063047"><ele>455.321533</ele><time>2012-06-29T18:11:58Z</time></trkpt>
<trkpt lat="48.33709775" lon="11.84076534"><ele>455.802246</ele><time>2012-06-29T18:12:00Z</time></trkpt>
<trkpt lat="48.33668352" lon="11.84103532"><ele>457.244263</ele><time>2012-06-29T18:12:07Z</time></trkpt>
<trkpt lat="48.33596813" lon="11.84146581"><ele>460.128174</ele><time>2012-06-29T18:12:20Z</time></trkpt>
<trkpt lat="48.33536471" lon="11.84174141"><ele>461.089478</ele><time>2012-06-29T18:12:30Z</time></trkpt>
<trkpt lat="48.33460883" lon="11.84200745"><ele>462.050781</ele><time>2012-06-29T18:12:41Z</time></trkpt>
<trkpt lat="48.33371985" lon="11.84221926"><ele>463.492798</ele><time>2012-06-29T18:12:53Z</time></trkpt>
<trkpt lat="48.33274830" lon="11.84249016"><ele>463.492798</ele><time>2012-06-29T18:13:06Z</time></trkpt>
<trkpt lat="48.33181422" lon="11.84280683"><ele>463.492798</ele><time>2012-06-29T18:13:18Z</time></trkpt>
<trkpt lat="48.33076632" lon="11.84301982"><ele>463.973389</ele><time>2012-06-29T18:13:31Z</time></trkpt>
<trkpt lat="48.32981346" lon="11.84312828"><ele>464.454102</ele><time>2012-06-29T18:13:43Z</time></trkpt>
<trkpt lat="48.32901307" lon="11.84330815"><ele>463.492798</ele><time>2012-06-29T18:13:53Z</time></trkpt>
<trkpt lat="48.32799643" lon="11.84354536"><ele>464.934814</ele><time>2012-06-29T18:14:06Z</time></trkpt>
<trkpt lat="48.32703805" lon="11.84379741"><ele>466.376709</ele><time>2012-06-29T18:14:19Z</time></trkpt>
<trkpt lat="48.32650035" lon="11.84394124"><ele>466.376709</ele><time>2012-06-29T18:14:28Z</time></trkpt>
<trkpt lat="48.32640337" lon="11.84395364"><ele>466.376709</ele><time>2012-06-29T18:14:30Z</time></trkpt>
<trkpt lat="48.32617714" lon="11.84379833"><ele>465.415527</ele><time>2012-06-29T18:14:36Z</time></trkpt>
<trkpt lat="48.32610925" lon="11.84378542"><ele>467.818726</ele><time>2012-06-29T18:15:05Z</time></trkpt>
<trkpt lat="48.32611679" lon="11.84378098"><ele>466.376709</ele><time>2012-06-29T18:16:05Z</time></trkpt>
<trkpt lat="48.32612006" lon="11.84377486"><ele>467.338135</ele><time>2012-06-29T18:16:29Z</time></trkpt>
<trkpt lat="48.32610338" lon="11.84374963"><ele>463.973389</ele><time>2012-06-29T18:17:25Z</time></trkpt>
<trkpt lat="48.32590909" lon="11.84412271"><ele>464.454102</ele><time>2012-06-29T18:17:43Z</time></trkpt>
<trkpt lat="48.32535001" lon="11.84437894"><ele>466.376709</ele><time>2012-06-29T18:17:53Z</time></trkpt>
<trkpt lat="48.32459472" lon="11.84467248"><ele>467.338135</ele><time>2012-06-29T18:18:04Z</time></trkpt>
<trkpt lat="48.32369719" lon="11.84501630"><ele>468.780029</ele><time>2012-06-29T18:18:16Z</time></trkpt>
<trkpt lat="48.32293041" lon="11.84535543"><ele>469.260742</ele><time>2012-06-29T18:18:26Z</time></trkpt>
<trkpt lat="48.32210789" lon="11.84580294"><ele>467.338135</ele><time>2012-06-29T18:18:37Z</time></trkpt>
<trkpt lat="48.32187261" lon="11.84589481"><ele>467.338135</ele><time>2012-06-29T18:18:40Z</time></trkpt>
<trkpt lat="48.32119117" lon="11.84630603"><ele>465.896118</ele><time>2012-06-29T18:18:49Z</time></trkpt>
<trkpt lat="48.32028961" lon="11.84659587"><ele>465.415527</ele><time>2012-06-29T18:19:00Z</time></trkpt>
<trkpt lat="48.31950313" lon="11.84687910"><ele>467.338135</ele><time>2012-06-29T18:19:10Z</time></trkpt>
<trkpt lat="48.31884918" lon="11.84722560"><ele>468.299316</ele><time>2012-06-29T18:19:19Z</time></trkpt>
<trkpt lat="48.31790336" lon="11.84769264"><ele>469.741333</ele><time>2012-06-29T18:19:32Z</time></trkpt>
<trkpt lat="48.31680626" lon="11.84801895"><ele>470.221924</ele><time>2012-06-29T18:19:46Z</time></trkpt>
<trkpt lat="48.31608784" lon="11.84813177"><ele>469.741333</ele><time>2012-06-29T18:19:55Z</time></trkpt>
<trkpt lat="48.31522426" lon="11.84808517"><ele>469.741333</ele><time>2012-06-29T18:20:05Z</time></trkpt>
<trkpt lat="48.31429512" lon="11.84789515"><ele>470.221924</ele><time>2012-06-29T18:20:16Z</time></trkpt>
<trkpt lat="48.31335233" lon="11.84777948"><ele>471.18335</ele><time>2012-06-29T18:20:27Z</time></trkpt>
<trkpt lat="48.31214592" lon="11.84772902"><ele>471.66394</ele><time>2012-06-29T18:20:41Z</time></trkpt>
<trkpt lat="48.31092669" lon="11.84768208"><ele>470.702637</ele><time>2012-06-29T18:20:55Z</time></trkpt>
<trkpt lat="48.31004147" lon="11.84762534"><ele>471.18335</ele><time>2012-06-29T18:21:05Z</time></trkpt>
<trkpt lat="48.30913397" lon="11.84739240"><ele>471.18335</ele><time>2012-06-29T18:21:15Z</time></trkpt>
<trkpt lat="48.30806628" lon="11.84724706"><ele>470.221924</ele><time>2012-06-29T18:21:26Z</time></trkpt>
<trkpt lat="48.30686440" lon="11.84722384"><ele>468.299316</ele><time>2012-06-29T18:21:38Z</time></trkpt>
<trkpt lat="48.30618312" lon="11.84731596"><ele>468.299316</ele><time>2012-06-29T18:21:45Z</time></trkpt>
<trkpt lat="48.30558054" lon="11.84736810"><ele>468.780029</ele><time>2012-06-29T18:21:52Z</time></trkpt>
<trkpt lat="48.30486364" lon="11.84746558"><ele>467.338135</ele><time>2012-06-29T18:22:10Z</time></trkpt>
<trkpt lat="48.30450204" lon="11.84749626"><ele>468.780029</ele><time>2012-06-29T18:22:16Z</time></trkpt>
<trkpt lat="48.30357685" lon="11.84752492"><ele>468.780029</ele><time>2012-06-29T18:22:30Z</time></trkpt>
<trkpt lat="48.30300973" lon="11.84740162"><ele>470.221924</ele><time>2012-06-29T18:22:38Z</time></trkpt>
<trkpt lat="48.30255819" lon="11.84705285"><ele>470.221924</ele><time>2012-06-29T18:22:45Z</time></trkpt>
<trkpt lat="48.30249349" lon="11.84700130"><ele>470.702637</ele><time>2012-06-29T18:22:46Z</time></trkpt>
<trkpt lat="48.30198001" lon="11.84686149"><ele>471.18335</ele><time>2012-06-29T18:22:53Z</time></trkpt>
<trkpt lat="48.30120041" lon="11.84683140"><ele>473.106079</ele><time>2012-06-29T18:23:03Z</time></trkpt>
<trkpt lat="48.30016910" lon="11.84688597"><ele>475.028687</ele><time>2012-06-29T18:23:16Z</time></trkpt>
<trkpt lat="48.29932312" lon="11.84706300"><ele>475.989868</ele><time>2012-06-29T18:23:27Z</time></trkpt>
<trkpt lat="48.29836632" lon="11.84736759"><ele>475.509277</ele><time>2012-06-29T18:23:39Z</time></trkpt>
<trkpt lat="48.29714734" lon="11.84776330"><ele>475.509277</ele><time>2012-06-29T18:23:54Z</time></trkpt>
<trkpt lat="48.29625978" lon="11.84811015"><ele>475.028687</ele><time>2012-06-29T18:24:05Z</time></trkpt>
<trkpt lat="48.29545612" lon="11.84856243"><ele>474.547974</ele><time>2012-06-29T18:24:15Z</time></trkpt>
<trkpt lat="48.29461274" lon="11.84891749"><ele>476.470581</ele><time>2012-06-29T18:24:26Z</time></trkpt>
<trkpt lat="48.29375200" lon="11.84911371"><ele>476.951294</ele><time>2012-06-29T18:24:37Z</time></trkpt>
<trkpt lat="48.29303392" lon="11.84921656"><ele>477.431885</ele><time>2012-06-29T18:24:46Z</time></trkpt>
<trkpt lat="48.29195961" lon="11.84923382"><ele>478.873901</ele><time>2012-06-29T18:24:59Z</time></trkpt>
<trkpt lat="48.29126677" lon="11.84903727"><ele>478.393188</ele><time>2012-06-29T18:25:07Z</time></trkpt>
<trkpt lat="48.29046596" lon="11.84858020"><ele>476.951294</ele><time>2012-06-29T18:25:16Z</time></trkpt>
<trkpt lat="48.28953741" lon="11.84807695"><ele>475.028687</ele><time>2012-06-29T18:25:26Z</time></trkpt>
<trkpt lat="48.28896241" lon="11.84797394"><ele>475.028687</ele><time>2012-06-29T18:25:32Z</time></trkpt>
<trkpt lat="48.28802213" lon="11.84797252"><ele>473.58667</ele><time>2012-06-29T18:25:42Z</time></trkpt>
<trkpt lat="48.28726667" lon="11.84784251"><ele>474.547974</ele><time>2012-06-29T18:25:50Z</time></trkpt>
<trkpt lat="48.28654231" lon="11.84752207"><ele>474.547974</ele><time>2012-06-29T18:25:58Z</time></trkpt>
<trkpt lat="48.28589388" lon="11.84706870"><ele>474.067261</ele><time>2012-06-29T18:26:06Z</time></trkpt>
<trkpt lat="48.28541393" lon="11.84662328"><ele>475.028687</ele><time>2012-06-29T18:26:13Z</time></trkpt>
<trkpt lat="48.28501864" lon="11.84619874"><ele>476.951294</ele><time>2012-06-29T18:26:20Z</time></trkpt>
<trkpt lat="48.28422873" lon="11.84551310"><ele>478.393188</ele><time>2012-06-29T18:26:32Z</time></trkpt>
<trkpt lat="48.28342793" lon="11.84498236"><ele>478.873901</ele><time>2012-06-29T18:26:43Z</time></trkpt>
<trkpt lat="48.28247733" lon="11.84450811"><ele>476.951294</ele><time>2012-06-29T18:26:55Z</time></trkpt>
<trkpt lat="48.28161014" lon="11.84423008"><ele>475.028687</ele><time>2012-06-29T18:27:05Z</time></trkpt>
<trkpt lat="48.28081327" lon="11.84408566"><ele>476.470581</ele><time>2012-06-29T18:27:14Z</time></trkpt>
<trkpt lat="48.28045160" lon="11.84412003"><ele>475.989868</ele><time>2012-06-29T18:27:18Z</time></trkpt>
<trkpt lat="48.27937720" lon="11.84417317"><ele>473.106079</ele><time>2012-06-29T18:27:30Z</time></trkpt>
<trkpt lat="48.27832955" lon="11.84423528"><ele>473.58667</ele><time>2012-06-29T18:27:42Z</time></trkpt>
<trkpt lat="48.27756696" lon="11.84440576"><ele>472.625366</ele><time>2012-06-29T18:27:51Z</time></trkpt>
<trkpt lat="48.27740343" lon="11.84444407"><ele>473.106079</ele><time>2012-06-29T18:27:53Z</time></trkpt>
<trkpt lat="48.27714200" lon="11.84438045"><ele>474.067261</ele><time>2012-06-29T18:27:57Z</time></trkpt>
<trkpt lat="48.27709934" lon="11.84435438"><ele>474.067261</ele><time>2012-06-29T18:27:58Z</time></trkpt>
<trkpt lat="48.27698920" lon="11.84425833"><ele>478.393188</ele><time>2012-06-29T18:28:44Z</time></trkpt>
<trkpt lat="48.27696766" lon="11.84422430"><ele>477.912476</ele><time>2012-06-29T18:28:46Z</time></trkpt>
<trkpt lat="48.27686389" lon="11.84325124"><ele>475.028687</ele><time>2012-06-29T18:28:59Z</time></trkpt>
<trkpt lat="48.27685081" lon="11.84314345"><ele>475.028687</ele><time>2012-06-29T18:29:00Z</time></trkpt>
<trkpt lat="48.27662534" lon="11.84241255"><ele>476.470581</ele><time>2012-06-29T18:29:07Z</time></trkpt>
<trkpt lat="48.27638537" lon="11.84177033"><ele>475.509277</ele><time>2012-06-29T18:29:13Z</time></trkpt>
<trkpt lat="48.27607708" lon="11.84073969"><ele>476.951294</ele><time>2012-06-29T18:29:22Z</time></trkpt>
<trkpt lat="48.27582479" lon="11.83962104"><ele>477.431885</ele><time>2012-06-29T18:29:31Z</time></trkpt>
<trkpt lat="48.27567374" lon="11.83869987"><ele>477.431885</ele><time>2012-06-29T18:29:38Z</time></trkpt>
<trkpt lat="48.27546922" lon="11.83794784"><ele>476.470581</ele><time>2012-06-29T18:29:44Z</time></trkpt>
<trkpt lat="48.27544081" lon="11.83739196"><ele>476.470581</ele><time>2012-06-29T18:29:48Z</time></trkpt>
<trkpt lat="48.27561096" lon="11.83619611"><ele>476.951294</ele><time>2012-06-29T18:29:57Z</time></trkpt>
<trkpt lat="48.27565597" lon="11.83465124"><ele>478.393188</ele><time>2012-06-29T18:30:09Z</time></trkpt>
<trkpt lat="48.27578925" lon="11.83364801"><ele>475.989868</ele><time>2012-06-29T18:30:17Z</time></trkpt>
<trkpt lat="48.27597306" lon="11.83204983"><ele>475.028687</ele><time>2012-06-29T18:30:29Z</time></trkpt>
<trkpt lat="48.27598882" lon="11.83093429"><ele>475.028687</ele><time>2012-06-29T18:30:37Z</time></trkpt>
<trkpt lat="48.27589628" lon="11.82968320"><ele>474.067261</ele><time>2012-06-29T18:30:46Z</time></trkpt>
<trkpt lat="48.27592914" lon="11.82856497"><ele>474.067261</ele><time>2012-06-29T18:30:54Z</time></trkpt>
<trkpt lat="48.27604255" lon="11.82775503"><ele>472.625366</ele><time>2012-06-29T18:31:00Z</time></trkpt>
<trkpt lat="48.27607867" lon="11.82634762"><ele>473.58667</ele><time>2012-06-29T18:31:10Z</time></trkpt>
<trkpt lat="48.27600659" lon="11.82523945"><ele>474.547974</ele><time>2012-06-29T18:31:18Z</time></trkpt>
<trkpt lat="48.27604447" lon="11.82397664"><ele>475.028687</ele><time>2012-06-29T18:31:27Z</time></trkpt>
<trkpt lat="48.27624774" lon="11.82245448"><ele>475.989868</ele><time>2012-06-29T18:31:38Z</time></trkpt>
<trkpt lat="48.27643172" lon="11.82077693"><ele>475.509277</ele><time>2012-06-29T18:31:50Z</time></trkpt>
<trkpt lat="48.27665979" lon="11.81866100"><ele>475.509277</ele><time>2012-06-29T18:32:05Z</time></trkpt>
<trkpt lat="48.27695886" lon="11.81673543"><ele>476.470581</ele><time>2012-06-29T18:32:19Z</time></trkpt>
<trkpt lat="48.27723395" lon="11.81480315"><ele>475.028687</ele><time>2012-06-29T18:32:33Z</time></trkpt>
<trkpt lat="48.27741869" lon="11.81313892"><ele>475.509277</ele><time>2012-06-29T18:32:45Z</time></trkpt>
<trkpt lat="48.27755841" lon="11.81135508"><ele>475.989868</ele><time>2012-06-29T18:32:58Z</time></trkpt>
<trkpt lat="48.27765439" lon="11.80971089"><ele>477.431885</ele><time>2012-06-29T18:33:10Z</time></trkpt>
<trkpt lat="48.27767543" lon="11.80818672"><ele>478.393188</ele><time>2012-06-29T18:33:21Z</time></trkpt>
<trkpt lat="48.27766704" lon="11.80620918"><ele>479.354492</ele><time>2012-06-29T18:33:35Z</time></trkpt>
<trkpt lat="48.27762036" lon="11.80474486"><ele>481.277222</ele><time>2012-06-29T18:33:45Z</time></trkpt>
<trkpt lat="48.27757107" lon="11.80249583"><ele>479.354492</ele><time>2012-06-29T18:34:00Z</time></trkpt>
<trkpt lat="48.27761340" lon="11.80049507"><ele>477.912476</ele><time>2012-06-29T18:34:13Z</time></trkpt>
<trkpt lat="48.27771373" lon="11.79856556"><ele>478.873901</ele><time>2012-06-29T18:34:26Z</time></trkpt>
<trkpt lat="48.27765950" lon="11.79759485"><ele>477.912476</ele><time>2012-06-29T18:34:33Z</time></trkpt>
<trkpt lat="48.27749421" lon="11.79620521"><ele>476.470581</ele><time>2012-06-29T18:34:43Z</time></trkpt>
<trkpt lat="48.27719967" lon="11.79440369"><ele>475.509277</ele><time>2012-06-29T18:34:56Z</time></trkpt>
<trkpt lat="48.27695332" lon="11.79294272"><ele>475.509277</ele><time>2012-06-29T18:35:07Z</time></trkpt>
<trkpt lat="48.27665644" lon="11.79108915"><ele>475.028687</ele><time>2012-06-29T18:35:21Z</time></trkpt>
<trkpt lat="48.27656717" lon="11.79039001"><ele>475.989868</ele><time>2012-06-29T18:35:26Z</time></trkpt>
<trkpt lat="48.27674554" lon="11.78912804"><ele>474.067261</ele><time>2012-06-29T18:35:35Z</time></trkpt>
<trkpt lat="48.27703857" lon="11.78731771"><ele>472.144653</ele><time>2012-06-29T18:35:48Z</time></trkpt>
<trkpt lat="48.27729740" lon="11.78571694"><ele>472.625366</ele><time>2012-06-29T18:36:00Z</time></trkpt>
<trkpt lat="48.27754442" lon="11.78387116"><ele>471.66394</ele><time>2012-06-29T18:36:14Z</time></trkpt>
<trkpt lat="48.27761114" lon="11.78243089"><ele>471.18335</ele><time>2012-06-29T18:36:25Z</time></trkpt>
<trkpt lat="48.27753779" lon="11.78084563"><ele>471.66394</ele><time>2012-06-29T18:36:37Z</time></trkpt>
<trkpt lat="48.27737552" lon="11.77977366"><ele>471.66394</ele><time>2012-06-29T18:36:45Z</time></trkpt>
<trkpt lat="48.27704569" lon="11.77831387"><ele>472.625366</ele><time>2012-06-29T18:36:56Z</time></trkpt>
<trkpt lat="48.27652560" lon="11.77623466"><ele>472.625366</ele><time>2012-06-29T18:37:11Z</time></trkpt>
<trkpt lat="48.27618286" lon="11.77464201"><ele>473.106079</ele><time>2012-06-29T18:37:22Z</time></trkpt>
<trkpt lat="48.27597256" lon="11.77121851"><ele>470.702637</ele><time>2012-06-29T18:37:45Z</time></trkpt>
<trkpt lat="48.27604808" lon="11.76947725"><ele>473.106079</ele><time>2012-06-29T18:37:57Z</time></trkpt>
<trkpt lat="48.27607624" lon="11.76760457"><ele>473.58667</ele><time>2012-06-29T18:38:10Z</time></trkpt>
<trkpt lat="48.27605554" lon="11.76574219"><ele>471.66394</ele><time>2012-06-29T18:38:23Z</time></trkpt>
<trkpt lat="48.27610675" lon="11.76453411"><ele>471.18335</ele><time>2012-06-29T18:38:32Z</time></trkpt>
<trkpt lat="48.27618043" lon="11.76334932"><ele>470.221924</ele><time>2012-06-29T18:38:41Z</time></trkpt>
<trkpt lat="48.27617884" lon="11.76215423"><ele>471.18335</ele><time>2012-06-29T18:38:50Z</time></trkpt>
<trkpt lat="48.27611899" lon="11.76106576"><ele>471.66394</ele><time>2012-06-29T18:38:58Z</time></trkpt>
<trkpt lat="48.27604439" lon="11.75981250"><ele>470.702637</ele><time>2012-06-29T18:39:08Z</time></trkpt>
<trkpt lat="48.27595169" lon="11.75853711"><ele>471.18335</ele><time>2012-06-29T18:39:18Z</time></trkpt>
<trkpt lat="48.27575941" lon="11.75687816"><ele>476.470581</ele><time>2012-06-29T18:39:31Z</time></trkpt>
<trkpt lat="48.27553544" lon="11.75566823"><ele>477.431885</ele><time>2012-06-29T18:39:41Z</time></trkpt>
<trkpt lat="48.27526622" lon="11.75464815"><ele>478.873901</ele><time>2012-06-29T18:39:50Z</time></trkpt>
<trkpt lat="48.27491929" lon="11.75358323"><ele>480.315918</ele><time>2012-06-29T18:40:00Z</time></trkpt>
<trkpt lat="48.27450355" lon="11.75252552"><ele>480.315918</ele><time>2012-06-29T18:40:11Z</time></trkpt>
<trkpt lat="48.27411882" lon="11.75168876"><ele>478.873901</ele><time>2012-06-29T18:40:21Z</time></trkpt>
<trkpt lat="48.27372612" lon="11.75091829"><ele>477.912476</ele><time>2012-06-29T18:40:31Z</time></trkpt>
<trkpt lat="48.27353787" lon="11.75058729"><ele>477.431885</ele><time>2012-06-29T18:40:36Z</time></trkpt>
<trkpt lat="48.27351591" lon="11.75041588"><ele>476.470581</ele><time>2012-06-29T18:40:41Z</time></trkpt>
<trkpt lat="48.27352831" lon="11.75039048"><ele>476.951294</ele><time>2012-06-29T18:40:48Z</time></trkpt>
<trkpt lat="48.27353694" lon="11.75039216"><ele>479.354492</ele><time>2012-06-29T18:41:10Z</time></trkpt>
<trkpt lat="48.27332455" lon="11.75022796"><ele>479.354492</ele><time>2012-06-29T18:42:18Z</time></trkpt>
<trkpt lat="48.27328976" lon="11.75019158"><ele>479.354492</ele><time>2012-06-29T18:42:19Z</time></trkpt>
<trkpt lat="48.27295164" lon="11.74972756"><ele>479.354492</ele><time>2012-06-29T18:42:27Z</time></trkpt>
<trkpt lat="48.27251871" lon="11.74914703"><ele>478.393188</ele><time>2012-06-29T18:42:36Z</time></trkpt>
<trkpt lat="48.27225921" lon="11.74905717"><ele>478.393188</ele><time>2012-06-29T18:42:40Z</time></trkpt>
<trkpt lat="48.27154792" lon="11.74924711"><ele>476.951294</ele><time>2012-06-29T18:42:50Z</time></trkpt>
<trkpt lat="48.27076396" lon="11.74943545"><ele>475.028687</ele><time>2012-06-29T18:43:01Z</time></trkpt>
<trkpt lat="48.26982502" lon="11.74966914"><ele>475.989868</ele><time>2012-06-29T18:43:14Z</time></trkpt>
<trkpt lat="48.26901172" lon="11.74979034"><ele>475.989868</ele><time>2012-06-29T18:43:25Z</time></trkpt>
<trkpt lat="48.26879120" lon="11.74975748"><ele>475.989868</ele><time>2012-06-29T18:43:28Z</time></trkpt>
<trkpt lat="48.26833690" lon="11.74941768"><ele>475.989868</ele><time>2012-06-29T18:43:35Z</time></trkpt>
<trkpt lat="48.26744464" lon="11.74858712"><ele>477.431885</ele><time>2012-06-29T18:43:49Z</time></trkpt>
<trkpt lat="48.26655935" lon="11.74777441"><ele>478.393188</ele><time>2012-06-29T18:44:03Z</time></trkpt>
<trkpt lat="48.26639179" lon="11.74761121"><ele>478.393188</ele><time>2012-06-29T18:44:06Z</time></trkpt>
<trkpt lat="48.26631459" lon="11.74724987"><ele>477.912476</ele><time>2012-06-29T18:44:10Z</time></trkpt>
<trkpt lat="48.26632331" lon="11.74692859"><ele>478.873901</ele><time>2012-06-29T18:44:13Z</time></trkpt>
<trkpt lat="48.26628098" lon="11.74642668"><ele>479.835083</ele><time>2012-06-29T18:44:18Z</time></trkpt>
<trkpt lat="48.26614000" lon="11.74548531"><ele>481.277222</ele><time>2012-06-29T18:44:27Z</time></trkpt>
<trkpt lat="48.26605207" lon="11.74457763"><ele>482.238525</ele><time>2012-06-29T18:44:36Z</time></trkpt>
<trkpt lat="48.26609021" lon="11.74342973"><ele>481.277222</ele><time>2012-06-29T18:44:47Z</time></trkpt>
<trkpt lat="48.26620756" lon="11.74224210"><ele>482.238525</ele><time>2012-06-29T18:44:58Z</time></trkpt>
<trkpt lat="48.26638249" lon="11.74068474"><ele>481.757813</ele><time>2012-06-29T18:45:12Z</time></trkpt>
<trkpt lat="48.26652020" lon="11.73943089"><ele>481.277222</ele><time>2012-06-29T18:45:23Z</time></trkpt>
<trkpt lat="48.26664409" lon="11.73804268"><ele>479.835083</ele><time>2012-06-29T18:45:35Z</time></trkpt>
<trkpt lat="48.26671793" lon="11.73667517"><ele>479.835083</ele><time>2012-06-29T18:45:46Z</time></trkpt>
<trkpt lat="48.26674450" lon="11.73630210"><ele>479.835083</ele><time>2012-06-29T18:45:49Z</time></trkpt>
<trkpt lat="48.26662783" lon="11.73557580"><ele>480.315918</ele><time>2012-06-29T18:45:55Z</time></trkpt>
<trkpt lat="48.26627201" lon="11.73409070"><ele>479.835083</ele><time>2012-06-29T18:46:08Z</time></trkpt>
<trkpt lat="48.26595300" lon="11.73301530"><ele>478.393188</ele><time>2012-06-29T18:46:17Z</time></trkpt>
<trkpt lat="48.26578737" lon="11.73232052"><ele>479.354492</ele><time>2012-06-29T18:46:24Z</time></trkpt>
<trkpt lat="48.26543173" lon="11.73120104"><ele>480.315918</ele><time>2012-06-29T18:46:35Z</time></trkpt>
<trkpt lat="48.26509980" lon="11.73027459"><ele>480.315918</ele><time>2012-06-29T18:46:45Z</time></trkpt>
<trkpt lat="48.26444996" lon="11.72829847"><ele>476.470581</ele><time>2012-06-29T18:47:06Z</time></trkpt>
<trkpt lat="48.26408518" lon="11.72718996"><ele>478.873901</ele><time>2012-06-29T18:47:17Z</time></trkpt>
<trkpt lat="48.26361864" lon="11.72584651"><ele>478.393188</ele><time>2012-06-29T18:47:30Z</time></trkpt>
<trkpt lat="48.26315537" lon="11.72449074"><ele>480.796631</ele><time>2012-06-29T18:47:43Z</time></trkpt>
<trkpt lat="48.26274298" lon="11.72326815"><ele>481.277222</ele><time>2012-06-29T18:47:55Z</time></trkpt>
<trkpt lat="48.26226924" lon="11.72190844"><ele>481.757813</ele><time>2012-06-29T18:48:08Z</time></trkpt>
<trkpt lat="48.26175082" lon="11.72042803"><ele>481.277222</ele><time>2012-06-29T18:48:22Z</time></trkpt>
<trkpt lat="48.26124530" lon="11.71896681"><ele>481.277222</ele><time>2012-06-29T18:48:36Z</time></trkpt>
<trkpt lat="48.26080441" lon="11.71767700"><ele>478.873901</ele><time>2012-06-29T18:48:49Z</time></trkpt>
<trkpt lat="48.26064306" lon="11.71716789"><ele>478.873901</ele><time>2012-06-29T18:48:55Z</time></trkpt>
<trkpt lat="48.26042052" lon="11.71714073"><ele>478.873901</ele><time>2012-06-29T18:48:59Z</time></trkpt>
<trkpt lat="48.26035582" lon="11.71717837"><ele>478.393188</ele><time>2012-06-29T18:49:00Z</time></trkpt>
<trkpt lat="48.25952869" lon="11.71754851"><ele>477.431885</ele><time>2012-06-29T18:49:12Z</time></trkpt>
<trkpt lat="48.25861883" lon="11.71794221"><ele>476.951294</ele><time>2012-06-29T18:49:25Z</time></trkpt>
<trkpt lat="48.25767377" lon="11.71829718"><ele>478.873901</ele><time>2012-06-29T18:49:38Z</time></trkpt>
<trkpt lat="48.25655571" lon="11.71872491"><ele>479.835083</ele><time>2012-06-29T18:49:53Z</time></trkpt>
<trkpt lat="48.25580545" lon="11.71901476"><ele>480.796631</ele><time>2012-06-29T18:50:03Z</time></trkpt>
<trkpt lat="48.25483457" lon="11.71938490"><ele>482.238525</ele><time>2012-06-29T18:50:16Z</time></trkpt>
<trkpt lat="48.25380636" lon="11.71976980"><ele>483.199829</ele><time>2012-06-29T18:50:30Z</time></trkpt>
<trkpt lat="48.25315610" lon="11.72002578"><ele>482.719238</ele><time>2012-06-29T18:50:39Z</time></trkpt>
<trkpt lat="48.25235370" lon="11.72033390"><ele>483.199829</ele><time>2012-06-29T18:50:51Z</time></trkpt>
<trkpt lat="48.25193955" lon="11.72050422"><ele>483.199829</ele><time>2012-06-29T18:50:58Z</time></trkpt>
<trkpt lat="48.25180870" lon="11.72031395"><ele>483.199829</ele><time>2012-06-29T18:51:02Z</time></trkpt>
<trkpt lat="48.25180829" lon="11.72022074"><ele>483.199829</ele><time>2012-06-29T18:51:03Z</time></trkpt>
<trkpt lat="48.25179848" lon="11.71906941"><ele>483.68042</ele><time>2012-06-29T18:51:14Z</time></trkpt>
<trkpt lat="48.25178607" lon="11.71747232"><ele>483.199829</ele><time>2012-06-29T18:51:28Z</time></trkpt>
<trkpt lat="48.25176101" lon="11.71566853"><ele>480.796631</ele><time>2012-06-29T18:51:43Z</time></trkpt>
<trkpt lat="48.25172941" lon="11.71397505"><ele>478.393188</ele><time>2012-06-29T18:51:57Z</time></trkpt>
<trkpt lat="48.25170519" lon="11.71226850"><ele>476.470581</ele><time>2012-06-29T18:52:11Z</time></trkpt>
<trkpt lat="48.25166889" lon="11.71118916"><ele>473.106079</ele><time>2012-06-29T18:52:20Z</time></trkpt>
<trkpt lat="48.25165096" lon="11.70989533"><ele>471.18335</ele><time>2012-06-29T18:52:31Z</time></trkpt>
<trkpt lat="48.25165498" lon="11.70846362"><ele>475.028687</ele><time>2012-06-29T18:52:43Z</time></trkpt>
<trkpt lat="48.25165431" lon="11.70682076"><ele>477.431885</ele><time>2012-06-29T18:52:57Z</time></trkpt>
<trkpt lat="48.25161936" lon="11.70514455"><ele>478.393188</ele><time>2012-06-29T18:53:11Z</time></trkpt>
<trkpt lat="48.25153017" lon="11.70373212"><ele>480.315918</ele><time>2012-06-29T18:53:23Z</time></trkpt>
<trkpt lat="48.25141425" lon="11.70296316"><ele>480.796631</ele><time>2012-06-29T18:53:31Z</time></trkpt>
<trkpt lat="48.25135801" lon="11.70247274"><ele>480.315918</ele><time>2012-06-29T18:53:37Z</time></trkpt>
<trkpt lat="48.25134963" lon="11.70165835"><ele>481.277222</ele><time>2012-06-29T18:53:47Z</time></trkpt>
<trkpt lat="48.25136757" lon="11.70091261"><ele>479.835083</ele><time>2012-06-29T18:53:54Z</time></trkpt>
<trkpt lat="48.25143864" lon="11.70000468"><ele>477.431885</ele><time>2012-06-29T18:54:01Z</time></trkpt>
<trkpt lat="48.25142146" lon="11.69909583"><ele>477.431885</ele><time>2012-06-29T18:54:08Z</time></trkpt>
<trkpt lat="48.25138584" lon="11.69790778"><ele>478.393188</ele><time>2012-06-29T18:54:18Z</time></trkpt>
<trkpt lat="48.25135994" lon="11.69697907"><ele>478.873901</ele><time>2012-06-29T18:54:26Z</time></trkpt>
<trkpt lat="48.25135231" lon="11.69620383"><ele>478.393188</ele><time>2012-06-29T18:54:33Z</time></trkpt>
<trkpt lat="48.25132876" lon="11.69492031"><ele>479.354492</ele><time>2012-06-29T18:54:44Z</time></trkpt>
<trkpt lat="48.25130738" lon="11.69411573"><ele>479.835083</ele><time>2012-06-29T18:54:52Z</time></trkpt>
<trkpt lat="48.25125659" lon="11.69391573"><ele>480.315918</ele><time>2012-06-29T18:54:56Z</time></trkpt>
<trkpt lat="48.25109155" lon="11.69374013"><ele>481.757813</ele><time>2012-06-29T18:55:01Z</time></trkpt>
<trkpt lat="48.25063356" lon="11.69331584"><ele>481.757813</ele><time>2012-06-29T18:55:10Z</time></trkpt>
<trkpt lat="48.24975355" lon="11.69242459"><ele>481.757813</ele><time>2012-06-29T18:55:25Z</time></trkpt>
<trkpt lat="48.24896682" lon="11.69162144"><ele>481.757813</ele><time>2012-06-29T18:55:37Z</time></trkpt>
<trkpt lat="48.24791942" lon="11.69057353"><ele>483.199829</ele><time>2012-06-29T18:55:52Z</time></trkpt>
<trkpt lat="48.24598135" lon="11.68834001"><ele>483.199829</ele><time>2012-06-29T18:56:21Z</time></trkpt>
<trkpt lat="48.24538951" lon="11.68739595"><ele>483.199829</ele><time>2012-06-29T18:56:31Z</time></trkpt>
<trkpt lat="48.24448518" lon="11.68596877"><ele>483.199829</ele><time>2012-06-29T18:56:46Z</time></trkpt>
<trkpt lat="48.24382729" lon="11.68515237"><ele>484.161133</ele><time>2012-06-29T18:56:56Z</time></trkpt>
<trkpt lat="48.24293889" lon="11.68420580"><ele>485.122437</ele><time>2012-06-29T18:57:09Z</time></trkpt>
<trkpt lat="48.24206751" lon="11.68327767"><ele>485.603027</ele><time>2012-06-29T18:57:22Z</time></trkpt>
<trkpt lat="48.24144599" lon="11.68260704"><ele>486.08374</ele><time>2012-06-29T18:57:32Z</time></trkpt>
<trkpt lat="48.24042457" lon="11.68152334"><ele>486.08374</ele><time>2012-06-29T18:57:48Z</time></trkpt>
<trkpt lat="48.23965830" lon="11.68074542"><ele>485.603027</ele><time>2012-06-29T18:58:00Z</time></trkpt>
<trkpt lat="48.23886914" lon="11.67994075"><ele>485.122437</ele><time>2012-06-29T18:58:13Z</time></trkpt>
<trkpt lat="48.23808560" lon="11.67921899"><ele>483.68042</ele><time>2012-06-29T18:58:28Z</time></trkpt>
<trkpt lat="48.23783699" lon="11.67686015"><ele>482.719238</ele><time>2012-06-29T18:58:54Z</time></trkpt>
<trkpt lat="48.23790916" lon="11.67572876"><ele>482.719238</ele><time>2012-06-29T18:59:06Z</time></trkpt>
<trkpt lat="48.23796381" lon="11.67502846"><ele>482.719238</ele><time>2012-06-29T18:59:13Z</time></trkpt>
<trkpt lat="48.23805886" lon="11.67415146"><ele>482.238525</ele><time>2012-06-29T18:59:21Z</time></trkpt>
<trkpt lat="48.23810765" lon="11.67366950"><ele>483.68042</ele><time>2012-06-29T18:59:26Z</time></trkpt>
<trkpt lat="48.23808602" lon="11.67333674"><ele>483.68042</ele><time>2012-06-29T18:59:30Z</time></trkpt>
<trkpt lat="48.23815651" lon="11.67239520"><ele>484.161133</ele><time>2012-06-29T18:59:39Z</time></trkpt>
<trkpt lat="48.23820060" lon="11.67159154"><ele>484.161133</ele><time>2012-06-29T18:59:47Z</time></trkpt>
<trkpt lat="48.23829574" lon="11.67004424"><ele>477.431885</ele><time>2012-06-29T19:00:01Z</time></trkpt>
<trkpt lat="48.23851274" lon="11.66823945"><ele>480.315918</ele><time>2012-06-29T19:00:17Z</time></trkpt>
<trkpt lat="48.23870192" lon="11.66671696"><ele>482.238525</ele><time>2012-06-29T19:00:30Z</time></trkpt>
<trkpt lat="48.23889010" lon="11.66522071"><ele>482.238525</ele><time>2012-06-29T19:00:43Z</time></trkpt>
<trkpt lat="48.23910794" lon="11.66299783"><ele>480.796631</ele><time>2012-06-29T19:01:02Z</time></trkpt>
<trkpt lat="48.23933417" lon="11.66195411"><ele>480.315918</ele><time>2012-06-29T19:01:13Z</time></trkpt>
<trkpt lat="48.23954875" lon="11.66102984"><ele>480.796631</ele><time>2012-06-29T19:01:24Z</time></trkpt>
<trkpt lat="48.23960583" lon="11.66072977"><ele>480.315918</ele><time>2012-06-29T19:01:28Z</time></trkpt>
<trkpt lat="48.23985192" lon="11.65947692"><ele>480.796631</ele><time>2012-06-29T19:01:44Z</time></trkpt>
<trkpt lat="48.24005594" lon="11.65858014"><ele>481.757813</ele><time>2012-06-29T19:01:53Z</time></trkpt>
<trkpt lat="48.24031795" lon="11.65751480"><ele>482.719238</ele><time>2012-06-29T19:02:03Z</time></trkpt>
<trkpt lat="48.24057939" lon="11.65611863"><ele>476.951294</ele><time>2012-06-29T19:02:15Z</time></trkpt>
<trkpt lat="48.24078918" lon="11.65479211"><ele>475.989868</ele><time>2012-06-29T19:02:26Z</time></trkpt>
<trkpt lat="48.24090586" lon="11.65353600"><ele>477.431885</ele><time>2012-06-29T19:02:36Z</time></trkpt>
<trkpt lat="48.24102564" lon="11.65218224"><ele>477.431885</ele><time>2012-06-29T19:02:47Z</time></trkpt>
<trkpt lat="48.24115606" lon="11.65059554"><ele>479.835083</ele><time>2012-06-29T19:03:00Z</time></trkpt>
<trkpt lat="48.24127575" lon="11.64915696"><ele>479.835083</ele><time>2012-06-29T19:03:12Z</time></trkpt>
<trkpt lat="48.24146393" lon="11.64793362"><ele>479.835083</ele><time>2012-06-29T19:03:23Z</time></trkpt>
<trkpt lat="48.24170927" lon="11.64692838"><ele>480.796631</ele><time>2012-06-29T19:03:33Z</time></trkpt>
<trkpt lat="48.24194178" lon="11.64616361"><ele>480.796631</ele><time>2012-06-29T19:03:42Z</time></trkpt>
<trkpt lat="48.24209626" lon="11.64569263"><ele>482.719238</ele><time>2012-06-29T19:03:50Z</time></trkpt>
<trkpt lat="48.24211646" lon="11.64563932"><ele>482.238525</ele><time>2012-06-29T19:03:55Z</time></trkpt>
<trkpt lat="48.24214848" lon="11.64551259"><ele>481.757813</ele><time>2012-06-29T19:04:16Z</time></trkpt>
<trkpt lat="48.24221168" lon="11.64527446"><ele>482.719238</ele><time>2012-06-29T19:04:21Z</time></trkpt>
<trkpt lat="48.24221604" lon="11.64513649"><ele>482.719238</ele><time>2012-06-29T19:04:24Z</time></trkpt>
<trkpt lat="48.24213146" lon="11.64501957"><ele>483.199829</ele><time>2012-06-29T19:04:30Z</time></trkpt>
<trkpt lat="48.24208377" lon="11.64495788"><ele>483.199829</ele><time>2012-06-29T19:04:32Z</time></trkpt>
<trkpt lat="48.24176693" lon="11.64471991"><ele>482.719238</ele><time>2012-06-29T19:04:39Z</time></trkpt>
<trkpt lat="48.24141758" lon="11.64443895"><ele>482.719238</ele><time>2012-06-29T19:04:46Z</time></trkpt>
<trkpt lat="48.24120459" lon="11.64435832"><ele>483.68042</ele><time>2012-06-29T19:04:50Z</time></trkpt>
<trkpt lat="48.24110820" lon="11.64428732"><ele>483.68042</ele><time>2012-06-29T19:04:52Z</time></trkpt>
<trkpt lat="48.24089077" lon="11.64395708"><ele>482.238525</ele><time>2012-06-29T19:04:57Z</time></trkpt>
<trkpt lat="48.24070008" lon="11.64364493"><ele>481.757813</ele><time>2012-06-29T19:05:01Z</time></trkpt>
<trkpt lat="48.24049188" lon="11.64360965"><ele>482.719238</ele><time>2012-06-29T19:05:05Z</time></trkpt>
<trkpt lat="48.24036766" lon="11.64378575"><ele>482.238525</ele><time>2012-06-29T19:05:09Z</time></trkpt>
<trkpt lat="48.24027219" lon="11.64376614"><ele>482.719238</ele><time>2012-06-29T19:05:11Z</time></trkpt>
<trkpt lat="48.23977179" lon="11.64341192"><ele>482.238525</ele><time>2012-06-29T19:05:20Z</time></trkpt>
<trkpt lat="48.23910048" lon="11.64297950"><ele>481.277222</ele><time>2012-06-29T19:05:31Z</time></trkpt>
<trkpt lat="48.23841820" lon="11.64251179"><ele>483.199829</ele><time>2012-06-29T19:05:42Z</time></trkpt>
<trkpt lat="48.23766475" lon="11.64217492"><ele>484.641846</ele><time>2012-06-29T19:05:54Z</time></trkpt>
<trkpt lat="48.23701037" lon="11.64195338"><ele>482.719238</ele><time>2012-06-29T19:06:05Z</time></trkpt>
<trkpt lat="48.23682798" lon="11.64188323"><ele>482.719238</ele><time>2012-06-29T19:06:08Z</time></trkpt>
<trkpt lat="48.23664266" lon="11.64177418"><ele>482.719238</ele><time>2012-06-29T19:06:11Z</time></trkpt>
<trkpt lat="48.23598409" lon="11.64163873"><ele>485.122437</ele><time>2012-06-29T19:06:20Z</time></trkpt>
<trkpt lat="48.23522360" lon="11.64144661"><ele>484.161133</ele><time>2012-06-29T19:06:30Z</time></trkpt>
<trkpt lat="48.23427997" lon="11.64128241"><ele>485.603027</ele><time>2012-06-29T19:06:43Z</time></trkpt>
<trkpt lat="48.23421618" lon="11.64127403"><ele>485.603027</ele><time>2012-06-29T19:06:44Z</time></trkpt>
<trkpt lat="48.23402708" lon="11.64129063"><ele>485.603027</ele><time>2012-06-29T19:06:47Z</time></trkpt>
<trkpt lat="48.23339760" lon="11.64117361"><ele>485.603027</ele><time>2012-06-29T19:06:56Z</time></trkpt>
<trkpt lat="48.23257475" lon="11.64113170"><ele>485.603027</ele><time>2012-06-29T19:07:07Z</time></trkpt>
<trkpt lat="48.23172826" lon="11.64114897"><ele>484.641846</ele><time>2012-06-29T19:07:18Z</time></trkpt>
<trkpt lat="48.23063518" lon="11.64116037"><ele>483.199829</ele><time>2012-06-29T19:07:32Z</time></trkpt>
<trkpt lat="48.23005943" lon="11.64110321"><ele>484.161133</ele><time>2012-06-29T19:07:40Z</time></trkpt>
<trkpt lat="48.22941285" lon="11.64096474"><ele>484.641846</ele><time>2012-06-29T19:07:49Z</time></trkpt>
<trkpt lat="48.22884606" lon="11.64077246"><ele>484.641846</ele><time>2012-06-29T19:07:57Z</time></trkpt>
<trkpt lat="48.22855395" lon="11.64077455"><ele>485.122437</ele><time>2012-06-29T19:08:01Z</time></trkpt>
<trkpt lat="48.22750546" lon="11.64040550"><ele>485.603027</ele><time>2012-06-29T19:08:15Z</time></trkpt>
<trkpt lat="48.22679518" lon="11.64011448"><ele>486.564453</ele><time>2012-06-29T19:08:25Z</time></trkpt>
<trkpt lat="48.22593017" lon="11.63978297"><ele>486.564453</ele><time>2012-06-29T19:08:37Z</time></trkpt>
<trkpt lat="48.22520245" lon="11.63952691"><ele>486.564453</ele><time>2012-06-29T19:08:47Z</time></trkpt>
<trkpt lat="48.22410073" lon="11.63912307"><ele>486.564453</ele><time>2012-06-29T19:09:02Z</time></trkpt>
<trkpt lat="48.22307370" lon="11.63876642"><ele>487.525635</ele><time>2012-06-29T19:09:16Z</time></trkpt>
<trkpt lat="48.22202152" lon="11.63837121"><ele>486.08374</ele><time>2012-06-29T19:09:30Z</time></trkpt>
<trkpt lat="48.22104519" lon="11.63801146"><ele>487.045044</ele><time>2012-06-29T19:09:43Z</time></trkpt>
<trkpt lat="48.21970560" lon="11.63750703"><ele>487.045044</ele><time>2012-06-29T19:10:01Z</time></trkpt>
<trkpt lat="48.21888191" lon="11.63720721"><ele>488.00647</ele><time>2012-06-29T19:10:12Z</time></trkpt>
<trkpt lat="48.21807406" lon="11.63689784"><ele>487.525635</ele><time>2012-06-29T19:10:23Z</time></trkpt>
<trkpt lat="48.21763200" lon="11.63676700"><ele>487.045044</ele><time>2012-06-29T19:10:30Z</time></trkpt>
<trkpt lat="48.21746478" lon="11.63670958"><ele>487.525635</ele><time>2012-06-29T19:10:47Z</time></trkpt>
<trkpt lat="48.21751289" lon="11.63668737"><ele>488.487183</ele><time>2012-06-29T19:10:55Z</time></trkpt>
<trkpt lat="48.21747375" lon="11.63670581"><ele>496.658325</ele><time>2012-06-29T19:23:51Z</time></trkpt>
<trkpt lat="48.21743771" lon="11.63672341"><ele>490.890381</ele><time>2012-06-29T19:24:02Z</time></trkpt>
<trkpt lat="48.21653891" lon="11.63658553"><ele>491.370972</ele><time>2012-06-29T19:24:35Z</time></trkpt>
<trkpt lat="48.21625309" lon="11.63643574"><ele>487.525635</ele><time>2012-06-29T19:24:40Z</time></trkpt>
<trkpt lat="48.21538221" lon="11.63635092"><ele>487.525635</ele><time>2012-06-29T19:24:53Z</time></trkpt>
<trkpt lat="48.21439491" lon="11.63580727"><ele>483.199829</ele><time>2012-06-29T19:25:08Z</time></trkpt>
<trkpt lat="48.21241535" lon="11.63468317"><ele>485.122437</ele><time>2012-06-29T19:25:37Z</time></trkpt>
<trkpt lat="48.21133476" lon="11.63406978"><ele>483.199829</ele><time>2012-06-29T19:25:53Z</time></trkpt>
<trkpt lat="48.21052180" lon="11.63353569"><ele>483.199829</ele><time>2012-06-29T19:26:06Z</time></trkpt>
<trkpt lat="48.21019147" lon="11.63330787"><ele>482.238525</ele><time>2012-06-29T19:26:14Z</time></trkpt>
<trkpt lat="48.20967925" lon="11.63296086"><ele>482.719238</ele><time>2012-06-29T19:26:27Z</time></trkpt>
<trkpt lat="48.20916669" lon="11.63263338"><ele>483.199829</ele><time>2012-06-29T19:26:36Z</time></trkpt>
<trkpt lat="48.20806758" lon="11.63193793"><ele>485.122437</ele><time>2012-06-29T19:26:53Z</time></trkpt>
<trkpt lat="48.20736928" lon="11.63149243"><ele>487.525635</ele><time>2012-06-29T19:27:05Z</time></trkpt>
<trkpt lat="48.20685941" lon="11.63116721"><ele>487.045044</ele><time>2012-06-29T19:27:15Z</time></trkpt>
<trkpt lat="48.20623211" lon="11.63079908"><ele>487.045044</ele><time>2012-06-29T19:27:26Z</time></trkpt>
<trkpt lat="48.20527649" lon="11.63019190"><ele>486.08374</ele><time>2012-06-29T19:27:42Z</time></trkpt>
<trkpt lat="48.20438574" lon="11.62965671"><ele>486.08374</ele><time>2012-06-29T19:27:57Z</time></trkpt>
<trkpt lat="48.20395298" lon="11.62939830"><ele>485.122437</ele><time>2012-06-29T19:28:05Z</time></trkpt>
<trkpt lat="48.20295663" lon="11.62881609"><ele>485.122437</ele><time>2012-06-29T19:28:21Z</time></trkpt>
<trkpt lat="48.20211005" lon="11.62831376"><ele>486.08374</ele><time>2012-06-29T19:28:35Z</time></trkpt>
<trkpt lat="48.20136566" lon="11.62783759"><ele>484.641846</ele><time>2012-06-29T19:28:47Z</time></trkpt>
<trkpt lat="48.20048061" lon="11.62731254"><ele>482.719238</ele><time>2012-06-29T19:29:01Z</time></trkpt>
<trkpt lat="48.19974845" lon="11.62686068"><ele>481.277222</ele><time>2012-06-29T19:29:14Z</time></trkpt>
<trkpt lat="48.19916205" lon="11.62651123"><ele>480.315918</ele><time>2012-06-29T19:29:25Z</time></trkpt>
<trkpt lat="48.19862519" lon="11.62617923"><ele>483.199829</ele><time>2012-06-29T19:29:36Z</time></trkpt>
<trkpt lat="48.19813292" lon="11.62590539"><ele>486.08374</ele><time>2012-06-29T19:29:45Z</time></trkpt>
<trkpt lat="48.19742222" lon="11.62544849"><ele>484.641846</ele><time>2012-06-29T19:29:57Z</time></trkpt>
<trkpt lat="48.19652712" lon="11.62485514"><ele>488.00647</ele><time>2012-06-29T19:30:13Z</time></trkpt>
<trkpt lat="48.19595916" lon="11.62451592"><ele>489.448364</ele><time>2012-06-29T19:30:26Z</time></trkpt>
<trkpt lat="48.19558189" lon="11.62432574"><ele>489.929077</ele><time>2012-06-29T19:30:38Z</time></trkpt>
<trkpt lat="48.19547075" lon="11.62428307"><ele>505.790894</ele><time>2012-06-29T19:31:12Z</time></trkpt>
<trkpt lat="48.19539699" lon="11.62421057"><ele>505.790894</ele><time>2012-06-29T19:31:58Z</time></trkpt>
<trkpt lat="48.19515978" lon="11.62400798"><ele>505.310181</ele><time>2012-06-29T19:32:08Z</time></trkpt>
<trkpt lat="48.19501846" lon="11.62392064"><ele>504.829468</ele><time>2012-06-29T19:32:11Z</time></trkpt>
<trkpt lat="48.19456173" lon="11.62365284"><ele>500.984131</ele><time>2012-06-29T19:32:18Z</time></trkpt>
<trkpt lat="48.19366487" lon="11.62308035"><ele>496.177734</ele><time>2012-06-29T19:32:32Z</time></trkpt>
<trkpt lat="48.19336706" lon="11.62289226"><ele>493.293579</ele><time>2012-06-29T19:32:37Z</time></trkpt>
<trkpt lat="48.19313513" lon="11.62263427"><ele>492.332397</ele><time>2012-06-29T19:32:41Z</time></trkpt>
<trkpt lat="48.19241127" lon="11.62199263"><ele>490.40979</ele><time>2012-06-29T19:32:52Z</time></trkpt>
<trkpt lat="48.19198698" lon="11.62146860"><ele>491.370972</ele><time>2012-06-29T19:33:00Z</time></trkpt>
<trkpt lat="48.19183501" lon="11.62122401"><ele>491.370972</ele><time>2012-06-29T19:33:05Z</time></trkpt>
<trkpt lat="48.19168422" lon="11.62094079"><ele>489.929077</ele><time>2012-06-29T19:33:11Z</time></trkpt>
<trkpt lat="48.19161189" lon="11.62079209"><ele>490.40979</ele><time>2012-06-29T19:33:13Z</time></trkpt>
<trkpt lat="48.19121039" lon="11.61974318"><ele>494.255005</ele><time>2012-06-29T19:33:25Z</time></trkpt>
<trkpt lat="48.19095257" lon="11.61862110"><ele>495.216187</ele><time>2012-06-29T19:33:36Z</time></trkpt>
<trkpt lat="48.19077328" lon="11.61773354"><ele>497.138916</ele><time>2012-06-29T19:33:46Z</time></trkpt>
<trkpt lat="48.19055350" lon="11.61671346"><ele>499.061523</ele><time>2012-06-29T19:33:58Z</time></trkpt>
<trkpt lat="48.19040800" lon="11.61598893"><ele>500.50354</ele><time>2012-06-29T19:34:07Z</time></trkpt>
<trkpt lat="48.19014279" lon="11.61545215"><ele>500.984131</ele><time>2012-06-29T19:34:15Z</time></trkpt>
<trkpt lat="48.18973552" lon="11.61484011"><ele>497.619629</ele><time>2012-06-29T19:34:25Z</time></trkpt>
<trkpt lat="48.18938280" lon="11.61435982"><ele>495.696899</ele><time>2012-06-29T19:34:34Z</time></trkpt>
<trkpt lat="48.18897016" lon="11.61381944"><ele>498.100342</ele><time>2012-06-29T19:34:45Z</time></trkpt>
<trkpt lat="48.18872516" lon="11.61356346"><ele>496.658325</ele><time>2012-06-29T19:34:51Z</time></trkpt>
</trkseg></trk></gpx>